Observation data for Welch on 05/27/2019      Previous  Date  Next       Current Mesonet Observations  Soil Data  Daily Summary Page  Observations in Plain Language
KWE2 270500Z 16012KT 21/18 A2989 RMK A01 T02120175  RH  079%=      5-min Rain = 0
KWE2 270501Z 17011KT 21/18 A2989 RMK A01 T02120175  RH  079%=      5-min Rain = 0
KWE2 270502Z 16010KT 21/18 A2989 RMK A01 T02120175  RH  079%=      5-min Rain = 0
KWE2 270503Z 16011KT 21/18 A2989 RMK A01 T02120175  RH  079%=      5-min Rain = 0
KWE2 270504Z 16011KT 21/18 A2989 RMK A01 T02120175  RH  080%=      5-min Rain = 0
KWE2 270505Z 16011KT 21/18 A2989 RMK A01 T02120175  RH  080%=      5-min Rain = 0
KWE2 270506Z 16011KT 21/18 A2989 RMK A01 T02120175  RH  080%=      5-min Rain = 0
KWE2 270507Z 16011KT 21/18 A2989 RMK A01 T02110175  RH  080%=      5-min Rain = 0
KWE2 270508Z 16011KT 21/18 A2989 RMK A01 T02110175  RH  080%=      5-min Rain = 0
KWE2 270509Z 17011KT 21/18 A2989 RMK A01 T02110175  RH  080%=      5-min Rain = 0
KWE2 270510Z 16011KT 21/18 A2989 RMK A01 T02110175  RH  080%=      5-min Rain = 0
KWE2 270511Z 17011KT 21/18 A2989 RMK A01 T02110175  RH  080%=      5-min Rain = 0
KWE2 270512Z 17010KT 21/18 A2989 RMK A01 T02100175  RH  080%=      5-min Rain = 0
KWE2 270513Z 17010KT 21/18 A2989 RMK A01 T02100175  RH  080%=      5-min Rain = 0
KWE2 270514Z 17010KT 21/18 A2989 RMK A01 T02100175  RH  081%=      5-min Rain = 0
KWE2 270515Z 17011KT 21/18 A2989 RMK A01 T02100175  RH  081%=      5-min Rain = 0
KWE2 270516Z 17011KT 21/18 A2989 RMK A01 T02100175  RH  081%=      5-min Rain = 0
KWE2 270517Z 17010KT 21/18 A2989 RMK A01 T02100175  RH  081%=      5-min Rain = 0
KWE2 270518Z 17010KT 21/18 A2989 RMK A01 T02100175  RH  081%=      5-min Rain = 0
KWE2 270519Z 17010KT 21/18 A2989 RMK A01 T02100175  RH  081%=      5-min Rain = 0
KWE2 270520Z 17010KT 21/18 A2989 RMK A01 T02100175  RH  080%=      5-min Rain = 0
KWE2 270521Z 17010KT 21/18 A2989 RMK A01 T02100175  RH  080%=      5-min Rain = 0
KWE2 270522Z 17009KT 21/18 A2989 RMK A01 T02100175  RH  081%=      5-min Rain = 0
KWE2 270523Z 17010KT 21/18 A299 RMK A01 T02100175  RH  081%=      5-min Rain = 0
KWE2 270524Z 17010KT 21/18 A299 RMK A01 T02100176  RH  081%=      5-min Rain = 0
KWE2 270525Z 17009KT 21/18 A299 RMK A01 T02100175  RH  081%=      5-min Rain = 0
KWE2 270526Z 17009KT 21/18 A299 RMK A01 T02100175  RH  081%=      5-min Rain = 0
KWE2 270527Z 17010KT 21/18 A299 RMK A01 T02100175  RH  081%=      5-min Rain = 0
KWE2 270528Z 17009KT 21/18 A299 RMK A01 T02100175  RH  081%=      5-min Rain = 0
KWE2 270529Z 17009KT 21/18 A299 RMK A01 T02100175  RH  080%=      5-min Rain = 0
KWE2 270530Z 17009KT 21/18 A299 RMK A01 T02100175  RH  081%=      5-min Rain = 0
KWE2 270531Z 18010KT 21/18 A299 RMK A01 T02100175  RH  081%=      5-min Rain = 0
KWE2 270532Z 18009KT 21/18 A299 RMK A01 T02100176  RH  081%=      5-min Rain = 0
KWE2 270533Z 18010KT 21/18 A299 RMK A01 T02100175  RH  081%=      5-min Rain = 0
KWE2 270534Z 18011KT 21/18 A299 RMK A01 T02100175  RH  081%=      5-min Rain = 0
KWE2 270535Z 18010KT 21/18 A299 RMK A01 T02100175  RH  081%=      5-min Rain = 0
KWE2 270536Z 18009KT 21/18 A299 RMK A01 T02100176  RH  081%=      5-min Rain = 0
KWE2 270537Z 18010KT 21/18 A299 RMK A01 T02100176  RH  081%=      5-min Rain = 0
KWE2 270538Z 18010KT 21/18 A299 RMK A01 T02100176  RH  081%=      5-min Rain = 0
KWE2 270539Z 18010KT 21/18 A299 RMK A01 T02090175  RH  081%=      5-min Rain = 0
KWE2 270540Z 18010KT 21/18 A299 RMK A01 T02090176  RH  081%=      5-min Rain = 0
KWE2 270541Z 17011KT 21/18 A299 RMK A01 T02090176  RH  081%=      5-min Rain = 0
KWE2 270542Z 18010KT 21/18 A299 RMK A01 T02090176  RH  081%=      5-min Rain = 0
KWE2 270543Z 18011KT 21/18 A299 RMK A01 T02080176  RH  081%=      5-min Rain = 0
KWE2 270544Z 18010KT 21/18 A2989 RMK A01 T02080176  RH  082%=      5-min Rain = 0
KWE2 270545Z 18010KT 21/18 A2989 RMK A01 T02080176  RH  082%=      5-min Rain = 0
KWE2 270546Z 18011KT 21/18 A2989 RMK A01 T02080176  RH  082%=      5-min Rain = 0
KWE2 270547Z 18010KT 21/18 A2989 RMK A01 T02070176  RH  082%=      5-min Rain = 0
KWE2 270548Z 18011KT 21/18 A2989 RMK A01 T02070176  RH  082%=      5-min Rain = 0
KWE2 270549Z 18010KT 21/18 A2989 RMK A01 T02070176  RH  082%=      5-min Rain = 0
KWE2 270550Z 18010KT 21/18 A2989 RMK A01 T02070176  RH  082%=      5-min Rain = 0
KWE2 270551Z 18010KT 21/18 A2989 RMK A01 T02060176  RH  083%=      5-min Rain = 0
KWE2 270552Z 18010KT 21/18 A2989 RMK A01 T02060176  RH  083%=      5-min Rain = 0
KWE2 270553Z 17010KT 21/18 A2989 RMK A01 T02060176  RH  083%=      5-min Rain = 0
KWE2 270554Z 17009KT 21/18 A2989 RMK A01 T02060176  RH  083%=      5-min Rain = 0
KWE2 270555Z 18009KT 21/18 A2989 RMK A01 T02060176  RH  083%=      5-min Rain = 0
KWE2 270556Z 18010KT 21/18 A2989 RMK A01 T02060176  RH  083%=      5-min Rain = 0
KWE2 270557Z 18009KT 21/18 A2989 RMK A01 T02050176  RH  083%=      5-min Rain = 0
KWE2 270558Z 18009KT 21/18 A2989 RMK A01 T02050176  RH  083%=      5-min Rain = 0
KWE2 270559Z 19009KT 21/18 A2989 RMK A01 T02050176  RH  083%=      5-min Rain = 0
KWE2 270600Z 19010KT 20/18 A2989 RMK A01 T02040176  RH  084%=      5-min Rain = 0
KWE2 270601Z 18009KT 20/18 A2989 RMK A01 T02040176  RH  084%=      5-min Rain = 0
KWE2 270602Z 18009KT 20/18 A2989 RMK A01 T02040175  RH  084%=      5-min Rain = 0
KWE2 270603Z 19008KT 20/18 A2989 RMK A01 T02040175  RH  084%=      5-min Rain = 0
KWE2 270604Z 19009KT 20/18 A2989 RMK A01 T02040176  RH  084%=      5-min Rain = 0
KWE2 270605Z 19007KT 20/18 A2989 RMK A01 T02040176  RH  084%=      5-min Rain = 0
KWE2 270606Z 19007KT 20/18 A2989 RMK A01 T02030176  RH  084%=      5-min Rain = 0
KWE2 270607Z 19007KT 20/18 A2989 RMK A01 T02030175  RH  084%=      5-min Rain = 0
KWE2 270608Z 19007KT 20/18 A299 RMK A01 T02030175  RH  084%=      5-min Rain = 0
KWE2 270609Z 20006KT 20/18 A299 RMK A01 T02020176  RH  084%=      5-min Rain = 0
KWE2 270610Z 22006KT 20/18 A299 RMK A01 T02020175  RH  085%=      5-min Rain = 0
KWE2 270611Z 24007KT 20/18 A2991 RMK A01 T02020175  RH  085%=      5-min Rain = 0
KWE2 270612Z 25009KT 20/18 A2992 RMK A01 T02020175  RH  085%=      5-min Rain = 0
KWE2 270613Z 26009KT 20/18 A2992 RMK A01 T02010175  RH  085%=      5-min Rain = 0
KWE2 270614Z 27009KT 20/18 A2992 RMK A01 T02000175  RH  086%=      5-min Rain = 0
KWE2 270615Z 28009KT 20/18 A2992 RMK A01 T01990175  RH  086%=      5-min Rain = 0
KWE2 270616Z 29008KT 20/18 A2992 RMK A01 T01990176  RH  086%=      5-min Rain = 0
KWE2 270617Z 29007KT 20/18 A2992 RMK A01 T01990175  RH  086%=      5-min Rain = 0
KWE2 270618Z 30007KT 20/18 A2992 RMK A01 T01980175  RH  087%=      5-min Rain = 0
KWE2 270619Z 30008KT 20/18 A2992 RMK A01 T01980175  RH  087%=      5-min Rain = 0
KWE2 270620Z 30008KT 20/18 A2992 RMK A01 T01970175  RH  087%=      5-min Rain = 0
KWE2 270621Z 30009KT 20/18 A2992 RMK A01 T01970176  RH  087%=      5-min Rain = 0
KWE2 270622Z 30009KT 20/18 A2993 RMK A01 T01970175  RH  087%=      5-min Rain = 0
KWE2 270623Z 30009KT 20/18 A2993 RMK A01 T01970176  RH  088%=      5-min Rain = 0
KWE2 270624Z 30009KT 20/18 A2993 RMK A01 T01970176  RH  088%=      5-min Rain = 0
KWE2 270625Z 30008KT 20/18 A2993 RMK A01 T01960175  RH  088%=      5-min Rain = 0
KWE2 270626Z 30007KT 20/18 A2993 RMK A01 T01970176  RH  088%=      5-min Rain = 0
KWE2 270627Z 30006KT 20/18 A2992 RMK A01 T01960175  RH  088%=      5-min Rain = 0
KWE2 270628Z 30005KT 20/18 A2992 RMK A01 T01960175  RH  087%=      5-min Rain = 0
KWE2 270629Z 30005KT 20/18 A2992 RMK A01 T01970176  RH  088%=      5-min Rain = 0
KWE2 270630Z 29004KT 20/18 A2992 RMK A01 T01960175  RH  088%=      5-min Rain = 0
KWE2 270631Z 29003KT 20/18 A2992 RMK A01 T01960175  RH  088%=      5-min Rain = 0
KWE2 270632Z 30003KT 20/18 A2992 RMK A01 T01960175  RH  088%=      5-min Rain = 0
KWE2 270633Z 30003KT 20/18 A2992 RMK A01 T01950175  RH  088%=      5-min Rain = 0
KWE2 270634Z 30003KT 20/18 A2992 RMK A01 T01950175  RH  088%=      5-min Rain = 0
KWE2 270635Z 30003KT 20/18 A2992 RMK A01 T01950175  RH  088%=      5-min Rain = 0
KWE2 270636Z 30004KT 20/18 A2992 RMK A01 T01950175  RH  088%=      5-min Rain = 0
KWE2 270637Z 30005KT 20/18 A2992 RMK A01 T01950175  RH  088%=      5-min Rain = 0
KWE2 270638Z 30004KT 19/17 A2992 RMK A01 T01940174  RH  088%=      5-min Rain = 0
KWE2 270639Z 30004KT 19/17 A2992 RMK A01 T01930174  RH  089%=      5-min Rain = 0
KWE2 270640Z 31003KT 19/17 A2992 RMK A01 T01930174  RH  089%=      5-min Rain = 0
KWE2 270641Z 31003KT 19/17 A2992 RMK A01 T01920174  RH  089%=      5-min Rain = 0
KWE2 270642Z 31003KT 19/17 A2992 RMK A01 T01910174  RH  090%=      5-min Rain = 0
KWE2 270643Z 32003KT 19/17 A2992 RMK A01 T01910174  RH  090%=      5-min Rain = 0
KWE2 270644Z 32003KT 19/18 A2992 RMK A01 T01910175  RH  091%=      5-min Rain = 0
KWE2 270645Z 31003KT 19/18 A2992 RMK A01 T01900175  RH  091%=      5-min Rain = 0
KWE2 270646Z 31003KT 19/18 A2992 RMK A01 T01900175  RH  091%=      5-min Rain = 0
KWE2 270647Z 31003KT 19/18 A2992 RMK A01 T01890175  RH  091%=      5-min Rain = 0
KWE2 270648Z 31002KT 19/18 A2992 RMK A01 T01890176  RH  092%=      5-min Rain = 0
KWE2 270649Z 31002KT 19/18 A2992 RMK A01 T01890175  RH  092%=      5-min Rain = 0
KWE2 270650Z 31002KT 19/18 A2992 RMK A01 T01880175  RH  092%=      5-min Rain = 0
KWE2 270651Z 31002KT 19/18 A2992 RMK A01 T01880176  RH  093%=      5-min Rain = 0
KWE2 270652Z 31002KT 19/18 A2992 RMK A01 T01870176  RH  093%=      5-min Rain = 0
KWE2 270653Z 30002KT 19/18 A2992 RMK A01 T01870177  RH  094%=      5-min Rain = 0
KWE2 270654Z 30002KT 19/18 A2992 RMK A01 T01860177  RH  094%=      5-min Rain = 0
KWE2 270655Z 30003KT 19/18 A2992 RMK A01 T01860177  RH  094%=      5-min Rain = 0
KWE2 270656Z 29003KT 19/18 A2992 RMK A01 T01860177  RH  095%=      5-min Rain = 0
KWE2 270657Z 29003KT 19/18 A2991 RMK A01 T01860177  RH  095%=      5-min Rain = 0
KWE2 270658Z 28002KT 19/18 A2991 RMK A01 T01850177  RH  095%=      5-min Rain = 0
KWE2 270659Z 28002KT 19/18 A2991 RMK A01 T01850177  RH  095%=      5-min Rain = 0
KWE2 270700Z 27002KT 19/18 A2991 RMK A01 T01850177  RH  095%=      5-min Rain = 0
KWE2 270701Z 27003KT 19/18 A2991 RMK A01 T01850177  RH  095%=      5-min Rain = 0
KWE2 270702Z 27003KT 19/18 A2991 RMK A01 T01850177  RH  095%=      5-min Rain = 0
KWE2 270703Z 26003KT 19/18 A2991 RMK A01 T01850177  RH  095%=      5-min Rain = 0
KWE2 270704Z 25003KT 19/18 A2991 RMK A01 T01860177  RH  094%=      5-min Rain = 0
KWE2 270705Z 26003KT 19/18 A2991 RMK A01 T01860177  RH  095%=      5-min Rain = 0
KWE2 270706Z 26003KT 19/18 A2991 RMK A01 T01860176  RH  094%=      5-min Rain = 0
KWE2 270707Z 26003KT 19/17 A2991 RMK A01 T01860174  RH  093%=      5-min Rain = 0
KWE2 270708Z 26003KT 19/18 A2991 RMK A01 T01860175  RH  093%=      5-min Rain = 0
KWE2 270709Z 25003KT 19/17 A2991 RMK A01 T01860174  RH  093%=      5-min Rain = 0
KWE2 270710Z 25003KT 19/17 A2991 RMK A01 T01850173  RH  093%=      5-min Rain = 0
KWE2 270711Z 24002KT 18/17 A2991 RMK A01 T01840174  RH  094%=      5-min Rain = 0
KWE2 270712Z 24003KT 19/18 A2991 RMK A01 T01850176  RH  094%=      5-min Rain = 0
KWE2 270713Z 24003KT 19/18 A2991 RMK A01 T01850176  RH  094%=      5-min Rain = 0
KWE2 270714Z 24003KT 19/18 A2991 RMK A01 T01850175  RH  094%=      5-min Rain = 0
KWE2 270715Z 24003KT 18/18 A2991 RMK A01 T01840175  RH  094%=      5-min Rain = 0
KWE2 270716Z 24002KT 19/17 A2991 RMK A01 T01850174  RH  093%=      5-min Rain = 0
KWE2 270717Z 24003KT 18/17 A2991 RMK A01 T01840174  RH  093%=      5-min Rain = 0
KWE2 270718Z 24003KT 19/18 A2991 RMK A01 T01850175  RH  094%=      5-min Rain = 0
KWE2 270719Z 24003KT 19/18 A2991 RMK A01 T01850175  RH  094%=      5-min Rain = 0
KWE2 270720Z 23003KT 19/17 A2991 RMK A01 T01850173  RH  093%=      5-min Rain = 0
KWE2 270721Z 24002KT 19/17 A2991 RMK A01 T01850172  RH  092%=      5-min Rain = 0
KWE2 270722Z 23002KT 18/17 A299 RMK A01 T01840172  RH  092%=      5-min Rain = 0
KWE2 270723Z 23002KT 18/17 A299 RMK A01 T01840172  RH  093%=      5-min Rain = 0
KWE2 270724Z 24002KT 18/17 A299 RMK A01 T01830172  RH  093%=      5-min Rain = 0
KWE2 270725Z 24002KT 18/17 A299 RMK A01 T01830171  RH  093%=      5-min Rain = 0
KWE2 270726Z 23002KT 18/17 A299 RMK A01 T01830172  RH  093%=      5-min Rain = 0
KWE2 270727Z 23002KT 18/17 A299 RMK A01 T01820170  RH  093%=      5-min Rain = 0
KWE2 270728Z 22002KT 18/17 A299 RMK A01 T01820173  RH  094%=      5-min Rain = 0
KWE2 270729Z 22002KT 18/17 A299 RMK A01 T01820173  RH  094%=      5-min Rain = 0
KWE2 270730Z 21002KT 18/17 A299 RMK A01 T01810170  RH  093%=      5-min Rain = 0
KWE2 270731Z 21002KT 18/17 A299 RMK A01 T01810170  RH  094%=      5-min Rain = 0
KWE2 270732Z 21001KT 18/17 A299 RMK A01 T01800170  RH  094%=      5-min Rain = 0
KWE2 270733Z 21002KT 18/17 A299 RMK A01 T01800169  RH  094%=      5-min Rain = 0
KWE2 270734Z 21002KT 18/17 A299 RMK A01 T01790169  RH  094%=      5-min Rain = 0
KWE2 270735Z 21001KT 18/17 A299 RMK A01 T01790170  RH  094%=      5-min Rain = 0
KWE2 270736Z 21001KT 18/17 A299 RMK A01 T01790171  RH  096%=      5-min Rain = 0
KWE2 270737Z 20001KT 18/17 A299 RMK A01 T01790172  RH  096%=      5-min Rain = 0
KWE2 270738Z 20001KT 18/17 A299 RMK A01 T01790170  RH  095%=      5-min Rain = 0
KWE2 270739Z 20001KT 18/17 A299 RMK A01 T01790170  RH  094%=      5-min Rain = 0
KWE2 270740Z 19001KT 18/17 A299 RMK A01 T01780169  RH  095%=      5-min Rain = 0
KWE2 270741Z 19001KT 18/17 A299 RMK A01 T01780170  RH  095%=      5-min Rain = 0
KWE2 270742Z 19001KT 18/17 A299 RMK A01 T01780169  RH  095%=      5-min Rain = 0
KWE2 270743Z 19001KT 18/17 A299 RMK A01 T01780169  RH  095%=      5-min Rain = 0
KWE2 270744Z 19001KT 18/17 A299 RMK A01 T01780170  RH  095%=      5-min Rain = 0
KWE2 270745Z 19001KT 18/17 A299 RMK A01 T01780170  RH  095%=      5-min Rain = 0
KWE2 270746Z 19001KT 18/17 A299 RMK A01 T01770170  RH  095%=      5-min Rain = 0
KWE2 270747Z 18001KT 18/17 A299 RMK A01 T01770170  RH  096%=      5-min Rain = 0
KWE2 270748Z 18001KT 18/17 A299 RMK A01 T01770170  RH  095%=      5-min Rain = 0
KWE2 270749Z 18002KT 18/17 A2989 RMK A01 T01770169  RH  095%=      5-min Rain = 0
KWE2 270750Z 18002KT 18/17 A2989 RMK A01 T01770169  RH  095%=      5-min Rain = 0
KWE2 270751Z 18002KT 18/17 A2989 RMK A01 T01770169  RH  095%=      5-min Rain = 0
KWE2 270752Z 18002KT 18/17 A2989 RMK A01 T01770168  RH  095%=      5-min Rain = 0
KWE2 270753Z 17002KT 18/17 A2989 RMK A01 T01760167  RH  094%=      5-min Rain = 0
KWE2 270754Z 17002KT 18/17 A2989 RMK A01 T01760166  RH  094%=      5-min Rain = 0
KWE2 270755Z 17002KT 18/17 A2989 RMK A01 T01750166  RH  094%=      5-min Rain = 0
KWE2 270756Z 16002KT 17/17 A2989 RMK A01 T01740166  RH  095%=      5-min Rain = 0
KWE2 270757Z 16002KT 17/17 A2989 RMK A01 T01740167  RH  096%=      5-min Rain = 0
KWE2 270758Z 16002KT 17/17 A2989 RMK A01 T01740168  RH  096%=      5-min Rain = 0
KWE2 270759Z 16002KT 17/17 A2989 RMK A01 T01730168  RH  097%=      5-min Rain = 0
KWE2 270800Z 16002KT 17/17 A2989 RMK A01 T01730168  RH  097%=      5-min Rain = 0
KWE2 270801Z 15002KT 17/17 A2989 RMK A01 T01730168  RH  097%=      5-min Rain = 0
KWE2 270802Z 14003KT 17/17 A2989 RMK A01 T01720167  RH  097%=      5-min Rain = 0
KWE2 270803Z 14003KT 17/17 A2989 RMK A01 T01720166  RH  097%=      5-min Rain = 0
KWE2 270804Z 14003KT 17/17 A2989 RMK A01 T01710166  RH  097%=      5-min Rain = 0
KWE2 270805Z 14003KT 17/17 A2989 RMK A01 T01700165  RH  097%=      5-min Rain = 0
KWE2 270806Z 14003KT 17/17 A2989 RMK A01 T01690165  RH  097%=      5-min Rain = 0
KWE2 270807Z 14003KT 17/17 A2989 RMK A01 T01690165  RH  098%=      5-min Rain = 0
KWE2 270808Z 14003KT 17/17 A2989 RMK A01 T01680166  RH  098%=      5-min Rain = 0
KWE2 270809Z 14003KT 17/17 A2989 RMK A01 T01680166  RH  099%=      5-min Rain = 0
KWE2 270810Z 14003KT 17/17 A2989 RMK A01 T01680167  RH  099%=      5-min Rain = 0
KWE2 270811Z 14003KT 17/17 A2989 RMK A01 T01670167  RH  100%=      5-min Rain = 0
KWE2 270812Z 14003KT 17/17 A2989 RMK A01 T01670167  RH  100%=      5-min Rain = 0
KWE2 270813Z 14003KT 17/17 A2989 RMK A01 T01680168  RH  100%=      5-min Rain = 0
KWE2 270814Z 14003KT 17/17 A2989 RMK A01 T01680168  RH  100%=      5-min Rain = 0
KWE2 270815Z 13003KT 17/17 A2989 RMK A01 T01670168  RH  100%=      5-min Rain = 0
KWE2 270816Z 13003KT 17/17 A2989 RMK A01 T01680168  RH  100%=      5-min Rain = 0
KWE2 270817Z 13003KT 17/17 A2989 RMK A01 T01680168  RH  100%=      5-min Rain = 0
KWE2 270818Z 13004KT 17/17 A2989 RMK A01 T01680168  RH  100%=      5-min Rain = 0
KWE2 270819Z 13004KT 17/17 A2989 RMK A01 T01670168  RH  100%=      5-min Rain = 0
KWE2 270820Z 13004KT 17/17 A2989 RMK A01 T01680168  RH  100%=      5-min Rain = 0
KWE2 270821Z 12004KT 17/17 A2989 RMK A01 T01680168  RH  100%=      5-min Rain = 0
KWE2 270822Z 13004KT 17/17 A2989 RMK A01 T01670168  RH  100%=      5-min Rain = 0
KWE2 270823Z 12005KT 17/17 A2989 RMK A01 T01680168  RH  100%=      5-min Rain = 0
KWE2 270824Z 13004KT 17/17 A2989 RMK A01 T01680168  RH  100%=      5-min Rain = 0
KWE2 270825Z 13005KT 17/17 A2989 RMK A01 T01670168  RH  100%=      5-min Rain = 0
KWE2 270826Z 13005KT 17/17 A2989 RMK A01 T01680168  RH  100%=      5-min Rain = 0
KWE2 270827Z 13005KT 17/17 A2989 RMK A01 T01670167  RH  100%=      5-min Rain = 0
KWE2 270828Z 14005KT 17/17 A2989 RMK A01 T01670167  RH  100%=      5-min Rain = 0
KWE2 270829Z 13005KT 17/17 A2989 RMK A01 T01660167  RH  100%=      5-min Rain = 0
KWE2 270830Z 13005KT 17/17 A2989 RMK A01 T01670167  RH  100%=      5-min Rain = 0
KWE2 270831Z 14005KT 17/17 A2989 RMK A01 T01670167  RH  100%=      5-min Rain = 0
KWE2 270832Z 14005KT 17/17 A2989 RMK A01 T01670167  RH  100%=      5-min Rain = 0
KWE2 270833Z 14005KT 17/17 A2989 RMK A01 T01670167  RH  100%=      5-min Rain = 0
KWE2 270834Z 15005KT 17/17 A2989 RMK A01 T01670167  RH  100%=      5-min Rain = 0
KWE2 270835Z 14005KT 17/17 A2989 RMK A01 T01670167  RH  100%=      5-min Rain = 0
KWE2 270836Z 15005KT 17/17 A2989 RMK A01 T01670167  RH  100%=      5-min Rain = 0
KWE2 270837Z 15005KT 17/17 A2989 RMK A01 T01680168  RH  100%=      5-min Rain = 0
KWE2 270838Z 14005KT 17/17 A2989 RMK A01 T01680168  RH  100%=      5-min Rain = 0
KWE2 270839Z 14005KT 17/17 A2989 RMK A01 T01680168  RH  100%=      5-min Rain = 0
KWE2 270840Z 14006KT 17/17 A2989 RMK A01 T01680168  RH  100%=      5-min Rain = 0
KWE2 270841Z 15006KT 17/17 A2989 RMK A01 T01680168  RH  100%=      5-min Rain = 0
KWE2 270842Z 15006KT 17/17 A2989 RMK A01 T01690169  RH  100%=      5-min Rain = 0
KWE2 270843Z 14006KT 17/17 A2989 RMK A01 T01700171  RH  100%=      5-min Rain = 0
KWE2 270844Z 15006KT 17/17 A2989 RMK A01 T01710171  RH  100%=      5-min Rain = 0
KWE2 270845Z 14006KT 17/17 A2989 RMK A01 T01710171  RH  100%=      5-min Rain = 0
KWE2 270846Z 15007KT 17/17 A2988 RMK A01 T01710171  RH  100%=      5-min Rain = 0
KWE2 270847Z 14006KT 17/17 A2988 RMK A01 T01710171  RH  100%=      5-min Rain = 0
KWE2 270848Z 14006KT 17/17 A2988 RMK A01 T01710171  RH  100%=      5-min Rain = 0
KWE2 270849Z 14006KT 17/17 A2988 RMK A01 T01710171  RH  100%=      5-min Rain = 0
KWE2 270850Z 14007KT 17/17 A2988 RMK A01 T01710170  RH  099%=      5-min Rain = 0
KWE2 270851Z 14006KT 17/17 A2988 RMK A01 T01710170  RH  099%=      5-min Rain = 0
KWE2 270852Z 14007KT 17/17 A2988 RMK A01 T01710170  RH  099%=      5-min Rain = 0
KWE2 270853Z 14007KT 17/17 A2988 RMK A01 T01710170  RH  099%=      5-min Rain = 0
KWE2 270854Z 14007KT 17/17 A2988 RMK A01 T01710170  RH  099%=      5-min Rain = 0
KWE2 270855Z 14007KT 17/17 A2988 RMK A01 T01710170  RH  100%=      5-min Rain = 0
KWE2 270856Z 14006KT 17/17 A2988 RMK A01 T01710171  RH  100%=      5-min Rain = 0
KWE2 270857Z 13007KT 17/17 A2988 RMK A01 T01710170  RH  099%=      5-min Rain = 0
KWE2 270858Z 14007KT 17/17 A2988 RMK A01 T01710170  RH  099%=      5-min Rain = 0
KWE2 270859Z 15009KT 17/17 A2988 RMK A01 T01720171  RH  100%=      5-min Rain = 0
KWE2 270900Z 14007KT 17/17 A2988 RMK A01 T01740173  RH  099%=      5-min Rain = 0
KWE2 270901Z 14007KT 17/17 A2988 RMK A01 T01740170  RH  097%=      5-min Rain = 0
KWE2 270902Z 14006KT 17/17 A2988 RMK A01 T01730170  RH  098%=      5-min Rain = 0
KWE2 270903Z 14007KT 17/17 A2988 RMK A01 T01730171  RH  099%=      5-min Rain = 0
KWE2 270904Z 14007KT 17/17 A2988 RMK A01 T01730173  RH  100%=      5-min Rain = 0
KWE2 270905Z 14007KT 17/17 A2988 RMK A01 T01740174  RH  100%=      5-min Rain = 0
KWE2 270906Z 14007KT 17/17 A2988 RMK A01 T01740173  RH  099%=      5-min Rain = 0
KWE2 270907Z 14007KT 17/17 A2988 RMK A01 T01740173  RH  099%=      5-min Rain = 0
KWE2 270908Z 14007KT 17/17 A2988 RMK A01 T01740174  RH  099%=      5-min Rain = 0
KWE2 270909Z 14007KT 18/18 A2988 RMK A01 T01750175  RH  100%=      5-min Rain = 0
KWE2 270910Z 14007KT 18/18 A2988 RMK A01 T01760175  RH  100%=      5-min Rain = 0
KWE2 270911Z 14007KT 18/18 A2988 RMK A01 T01760175  RH  100%=      5-min Rain = 0
KWE2 270912Z 15008KT 18/18 A2988 RMK A01 T01770176  RH  099%=      5-min Rain = 0
KWE2 270913Z 15007KT 18/18 A2988 RMK A01 T01770177  RH  100%=      5-min Rain = 0
KWE2 270914Z 15007KT 18/18 A2988 RMK A01 T01780177  RH  099%=      5-min Rain = 0
KWE2 270915Z 15007KT 18/18 A2988 RMK A01 T01790177  RH  099%=      5-min Rain = 0
KWE2 270916Z 16007KT 18/18 A2988 RMK A01 T01790177  RH  099%=      5-min Rain = 0
KWE2 270917Z 16007KT 18/18 A2988 RMK A01 T01800178  RH  099%=      5-min Rain = 0
KWE2 270918Z 16009KT 18/18 A2988 RMK A01 T01820179  RH  099%=      5-min Rain = 0
KWE2 270919Z 17009KT 18/18 A2988 RMK A01 T01840181  RH  098%=      5-min Rain = 0
KWE2 270920Z 17009KT 19/18 A2988 RMK A01 T01860181  RH  097%=      5-min Rain = 0
KWE2 270921Z 16009KT 19/18 A2988 RMK A01 T01870181  RH  096%=      5-min Rain = 0
KWE2 270922Z 17010KT 19/18 A2988 RMK A01 T01890183  RH  096%=      5-min Rain = 0
KWE2 270923Z 17009KT 19/18 A2988 RMK A01 T01910183  RH  095%=      5-min Rain = 0
KWE2 270924Z 17009KT 19/18 A2988 RMK A01 T01920183  RH  094%=      5-min Rain = 0
KWE2 270925Z 17010KT 19/18 A2988 RMK A01 T01920182  RH  094%=      5-min Rain = 0
KWE2 270926Z 16010KT 19/18 A2988 RMK A01 T01930183  RH  094%=      5-min Rain = 0
KWE2 270927Z 16009KT 19/18 A2988 RMK A01 T01930183  RH  094%=      5-min Rain = 0
KWE2 270928Z 17010KT 19/18 A2988 RMK A01 T01930184  RH  094%=      5-min Rain = 0
KWE2 270929Z 17009KT 19/18 A2988 RMK A01 T01940184  RH  094%=      5-min Rain = 0
KWE2 270930Z 17009KT 19/18 A2988 RMK A01 T01940184  RH  094%=      5-min Rain = 0
KWE2 270931Z 16009KT 19/18 A2988 RMK A01 T01940184  RH  094%=      5-min Rain = 0
KWE2 270932Z 17009KT 19/18 A2988 RMK A01 T01940184  RH  094%=      5-min Rain = 0
KWE2 270933Z 17010KT 20/19 A2988 RMK A01 T01950185  RH  094%=      5-min Rain = 0
KWE2 270934Z 16010KT 19/18 A2988 RMK A01 T01940184  RH  094%=      5-min Rain = 0
KWE2 270935Z 17009KT 19/19 A2988 RMK A01 T01940185  RH  094%=      5-min Rain = 0
KWE2 270936Z 17009KT 20/19 A2988 RMK A01 T01950185  RH  094%=      5-min Rain = 0
KWE2 270937Z 17009KT 20/19 A2988 RMK A01 T01950185  RH  094%=      5-min Rain = 0
KWE2 270938Z 16010KT 20/19 A2988 RMK A01 T01950185  RH  094%=      5-min Rain = 0
KWE2 270939Z 17009KT 20/19 A2988 RMK A01 T01950185  RH  094%=      5-min Rain = 0
KWE2 270940Z 17009KT 20/19 A2988 RMK A01 T01950185  RH  094%=      5-min Rain = 0
KWE2 270941Z 17008KT 20/19 A2988 RMK A01 T01950186  RH  095%=      5-min Rain = 0
KWE2 270942Z 17009KT 20/19 A2988 RMK A01 T01950186  RH  095%=      5-min Rain = 0
KWE2 270943Z 17009KT 19/19 A2988 RMK A01 T01940185  RH  095%=      5-min Rain = 0
KWE2 270944Z 16009KT 19/19 A2988 RMK A01 T01940186  RH  095%=      5-min Rain = 0
KWE2 270945Z 17009KT 19/19 A2988 RMK A01 T01940186  RH  095%=      5-min Rain = 0
KWE2 270946Z 17009KT 19/19 A2988 RMK A01 T01940185  RH  095%=      5-min Rain = 0
KWE2 270947Z 17011KT 19/19 A2988 RMK A01 T01940186  RH  095%=      5-min Rain = 0
KWE2 270948Z 17010KT 20/19 A2988 RMK A01 T01950187  RH  095%=      5-min Rain = 0
KWE2 270949Z 18010KT 20/19 A2988 RMK A01 T01960186  RH  094%=      5-min Rain = 0
KWE2 270950Z 17010KT 20/19 A2988 RMK A01 T01960186  RH  094%=      5-min Rain = 0
KWE2 270951Z 18010KT 20/19 A2988 RMK A01 T01960186  RH  094%=      5-min Rain = 0
KWE2 270952Z 18010KT 20/19 A2988 RMK A01 T01960186  RH  094%=      5-min Rain = 0
KWE2 270953Z 18010KT 20/19 A2988 RMK A01 T01960186  RH  094%=      5-min Rain = 0
KWE2 270954Z 18010KT 20/19 A2988 RMK A01 T01960187  RH  094%=      5-min Rain = 0
KWE2 270955Z 17010KT 20/19 A2988 RMK A01 T01960187  RH  094%=      5-min Rain = 0
KWE2 270956Z 18009KT 20/19 A2988 RMK A01 T01950187  RH  095%=      5-min Rain = 0
KWE2 270957Z 18009KT 20/19 A2988 RMK A01 T01950187  RH  095%=      5-min Rain = 0
KWE2 270958Z 18009KT 20/19 A2988 RMK A01 T01950187  RH  095%=      5-min Rain = 0
KWE2 270959Z 18009KT 19/19 A2988 RMK A01 T01940187  RH  095%=      5-min Rain = 0
KWE2 271000Z 18009KT 19/19 A2988 RMK A01 T01940187  RH  096%=      5-min Rain = 0
KWE2 271001Z 18009KT 19/19 A2988 RMK A01 T01940187  RH  095%=      5-min Rain = 0
KWE2 271002Z 19009KT 19/19 A2988 RMK A01 T01940187  RH  095%=      5-min Rain = 0
KWE2 271003Z 18009KT 19/19 A2988 RMK A01 T01940187  RH  095%=      5-min Rain = 0
KWE2 271004Z 18008KT 19/19 A2988 RMK A01 T01940187  RH  096%=      5-min Rain = 0
KWE2 271005Z 18010KT 19/19 A2988 RMK A01 T01940187  RH  096%=      5-min Rain = 0
KWE2 271006Z 18011KT 19/19 A2988 RMK A01 T01940188  RH  096%=      5-min Rain = 0
KWE2 271007Z 18009KT 19/19 A2988 RMK A01 T01940188  RH  096%=      5-min Rain = 0
KWE2 271008Z 18010KT 20/19 A2988 RMK A01 T01950188  RH  096%=      5-min Rain = 0
KWE2 271009Z 18010KT 19/19 A2988 RMK A01 T01940187  RH  096%=      5-min Rain = 0
KWE2 271010Z 18011KT 20/19 A2988 RMK A01 T01950188  RH  095%=      5-min Rain = 0
KWE2 271011Z 18010KT 20/19 A2988 RMK A01 T01950188  RH  096%=      5-min Rain = 0
KWE2 271012Z 18010KT 20/19 A2988 RMK A01 T01950188  RH  096%=      5-min Rain = 0
KWE2 271013Z 18011KT 20/19 A2988 RMK A01 T01950188  RH  096%=      5-min Rain = 0
KWE2 271014Z 18010KT 20/19 A2988 RMK A01 T01950188  RH  096%=      5-min Rain = 0
KWE2 271015Z 18011KT 20/19 A2988 RMK A01 T01960189  RH  096%=      5-min Rain = 0
KWE2 271016Z 18010KT 20/19 A2988 RMK A01 T01950188  RH  096%=      5-min Rain = 0
KWE2 271017Z 17010KT 20/19 A2988 RMK A01 T01950188  RH  096%=      5-min Rain = 0
KWE2 271018Z 18011KT 20/19 A2988 RMK A01 T01960189  RH  096%=      5-min Rain = 0
KWE2 271019Z 18010KT 20/19 A2988 RMK A01 T01950189  RH  096%=      5-min Rain = 0
KWE2 271020Z 18009KT 20/19 A2988 RMK A01 T01950188  RH  096%=      5-min Rain = 0
KWE2 271021Z 18009KT 20/19 A2988 RMK A01 T01950188  RH  096%=      5-min Rain = 0
KWE2 271022Z 18010KT 19/19 A2988 RMK A01 T01940189  RH  097%=      5-min Rain = 0
KWE2 271023Z 18010KT 19/19 A2988 RMK A01 T01940189  RH  097%=      5-min Rain = 0
KWE2 271024Z 18009KT 19/19 A2988 RMK A01 T01940189  RH  097%=      5-min Rain = 0
KWE2 271025Z 17009KT 19/19 A2988 RMK A01 T01940189  RH  097%=      5-min Rain = 0
KWE2 271026Z 18010KT 19/19 A2988 RMK A01 T01940189  RH  097%=      5-min Rain = 0
KWE2 271027Z 18010KT 19/19 A2988 RMK A01 T01940190  RH  097%=      5-min Rain = 0
KWE2 271028Z 18010KT 19/19 A2988 RMK A01 T01940190  RH  097%=      5-min Rain = 0
KWE2 271029Z 18009KT 19/19 A2988 RMK A01 T01940189  RH  097%=      5-min Rain = 0
KWE2 271030Z 17009KT 19/19 A2988 RMK A01 T01940189  RH  097%=      5-min Rain = 0
KWE2 271031Z 17009KT 19/19 A2988 RMK A01 T01930189  RH  097%=      5-min Rain = 0
KWE2 271032Z 17009KT 19/19 A2988 RMK A01 T01930190  RH  098%=      5-min Rain = 0
KWE2 271033Z 18009KT 19/19 A2988 RMK A01 T01930190  RH  098%=      5-min Rain = 0
KWE2 271034Z 18009KT 19/19 A2988 RMK A01 T01930189  RH  098%=      5-min Rain = 0
KWE2 271035Z 18009KT 19/19 A2988 RMK A01 T01930190  RH  098%=      5-min Rain = 0
KWE2 271036Z 18008KT 19/19 A2988 RMK A01 T01920190  RH  098%=      5-min Rain = 0
KWE2 271037Z 18008KT 19/19 A2988 RMK A01 T01920189  RH  098%=      5-min Rain = 0
KWE2 271038Z 18009KT 19/19 A2988 RMK A01 T01920189  RH  098%=      5-min Rain = 0
KWE2 271039Z 18008KT 19/19 A2988 RMK A01 T01920190  RH  099%=      5-min Rain = 0
KWE2 271040Z 18008KT 19/19 A2988 RMK A01 T01920190  RH  099%=      5-min Rain = 0
KWE2 271041Z 18008KT 19/19 A2988 RMK A01 T01910190  RH  099%=      5-min Rain = 0
KWE2 271042Z 18008KT 19/19 A2988 RMK A01 T01910190  RH  099%=      5-min Rain = 0
KWE2 271043Z 18009KT 19/19 A2988 RMK A01 T01910190  RH  099%=      5-min Rain = 0
KWE2 271044Z 17009KT 19/19 A2988 RMK A01 T01910190  RH  099%=      5-min Rain = 0
KWE2 271045Z 18009KT 19/19 A2988 RMK A01 T01910190  RH  099%=      5-min Rain = 0
KWE2 271046Z 18008KT 19/19 A2988 RMK A01 T01910190  RH  099%=      5-min Rain = 0
KWE2 271047Z 18008KT 19/19 A2988 RMK A01 T01910190  RH  099%=      5-min Rain = 0
KWE2 271048Z 18008KT 19/19 A2988 RMK A01 T01910190  RH  099%=      5-min Rain = 0
KWE2 271049Z 18008KT 19/19 A2988 RMK A01 T01910190  RH  099%=      5-min Rain = 0
KWE2 271050Z 18009KT 19/19 A2988 RMK A01 T01910190  RH  099%=      5-min Rain = 0
KWE2 271051Z 18008KT 19/19 A2988 RMK A01 T01910190  RH  099%=      5-min Rain = 0
KWE2 271052Z 18008KT 19/19 A2988 RMK A01 T01910190  RH  099%=      5-min Rain = 0
KWE2 271053Z 18008KT 19/19 A2988 RMK A01 T01910190  RH  099%=      5-min Rain = 0
KWE2 271054Z 18009KT 19/19 A2988 RMK A01 T01910190  RH  099%=      5-min Rain = 0
KWE2 271055Z 18008KT 19/19 A2988 RMK A01 T01910190  RH  099%=      5-min Rain = 0
KWE2 271056Z 18008KT 19/19 A2988 RMK A01 T01910190  RH  099%=      5-min Rain = 0
KWE2 271057Z 18008KT 19/19 A2988 RMK A01 T01910190  RH  099%=      5-min Rain = 0
KWE2 271058Z 18008KT 19/19 A2988 RMK A01 T01900190  RH  100%=      5-min Rain = 0
KWE2 271059Z 18008KT 19/19 A2988 RMK A01 T01900190  RH  100%=      5-min Rain = 0
KWE2 271100Z 18008KT 19/19 A2988 RMK A01 T01900190  RH  100%=      5-min Rain = 0
KWE2 271101Z 18008KT 19/19 A2988 RMK A01 T01900189  RH  100%=      5-min Rain = 0
KWE2 271102Z 18008KT 19/19 A2988 RMK A01 T01890189  RH  100%=      5-min Rain = 0
KWE2 271103Z 18008KT 19/19 A2988 RMK A01 T01890189  RH  100%=      5-min Rain = 0
KWE2 271104Z 18008KT 19/19 A2988 RMK A01 T01890189  RH  100%=      5-min Rain = 0
KWE2 271105Z 18007KT 19/19 A2988 RMK A01 T01890189  RH  100%=      5-min Rain = 0
KWE2 271106Z 18007KT 19/19 A2988 RMK A01 T01880189  RH  100%=      5-min Rain = 0
KWE2 271107Z 18007KT 19/19 A2988 RMK A01 T01880188  RH  100%=      5-min Rain = 0
KWE2 271108Z 18008KT 19/19 A2988 RMK A01 T01880188  RH  100%=      5-min Rain = 0
KWE2 271109Z 18008KT 19/19 A2988 RMK A01 T01870188  RH  100%=      5-min Rain = 0
KWE2 271110Z 18008KT 19/19 A2988 RMK A01 T01870187  RH  100%=      5-min Rain = 0
KWE2 271111Z 18007KT 19/19 A2988 RMK A01 T01870187  RH  100%=      5-min Rain = 0
KWE2 271112Z 18007KT 19/19 A2988 RMK A01 T01870187  RH  100%=      5-min Rain = 0
KWE2 271113Z 18007KT 19/19 A2988 RMK A01 T01870187  RH  100%=      5-min Rain = 0
KWE2 271114Z 18007KT 19/19 A2989 RMK A01 T01870187  RH  100%=      5-min Rain = 0
KWE2 271115Z 18007KT 19/19 A2989 RMK A01 T01860186  RH  100%=      5-min Rain = 0
KWE2 271116Z 18007KT 19/19 A2989 RMK A01 T01860186  RH  100%=      5-min Rain = 0
KWE2 271117Z 18007KT 19/19 A2989 RMK A01 T01860186  RH  100%=      5-min Rain = 0
KWE2 271118Z 18007KT 19/19 A2989 RMK A01 T01850185  RH  100%=      5-min Rain = 0
KWE2 271119Z 18007KT 19/19 A2989 RMK A01 T01850185  RH  100%=      5-min Rain = 0
KWE2 271120Z 18007KT 19/19 A2989 RMK A01 T01850185  RH  100%=      5-min Rain = 0
KWE2 271121Z 18007KT 19/19 A2989 RMK A01 T01850185  RH  100%=      5-min Rain = 0
KWE2 271122Z 18006KT 19/19 A2989 RMK A01 T01850185  RH  100%=      5-min Rain = 0
KWE2 271123Z 18007KT 18/18 A2989 RMK A01 T01840184  RH  100%=      5-min Rain = 0
KWE2 271124Z 18007KT 18/18 A2989 RMK A01 T01840184  RH  100%=      5-min Rain = 0
KWE2 271125Z 18007KT 18/18 A2989 RMK A01 T01840184  RH  100%=      5-min Rain = 0
KWE2 271126Z 17007KT 18/18 A2989 RMK A01 T01830184  RH  100%=      5-min Rain = 0
KWE2 271127Z 18007KT 18/18 A2989 RMK A01 T01830183  RH  100%=      5-min Rain = 0
KWE2 271128Z 18007KT 18/18 A2989 RMK A01 T01830183  RH  100%=      5-min Rain = 0
KWE2 271129Z 18008KT 18/18 A2989 RMK A01 T01830183  RH  100%=      5-min Rain = 0
KWE2 271130Z 18007KT 18/18 A2989 RMK A01 T01830183  RH  100%=      5-min Rain = 0
KWE2 271131Z 18007KT 18/18 A2989 RMK A01 T01830183  RH  100%=      5-min Rain = 0
KWE2 271132Z 18007KT 18/18 A2989 RMK A01 T01830183  RH  100%=      5-min Rain = 0
KWE2 271133Z 18007KT 18/18 A2989 RMK A01 T01830183  RH  100%=      5-min Rain = 0
KWE2 271134Z 18007KT 18/18 A2989 RMK A01 T01820182  RH  100%=      5-min Rain = 0
KWE2 271135Z 18007KT 18/18 A2989 RMK A01 T01820183  RH  100%=      5-min Rain = 0
KWE2 271136Z 18006KT 18/18 A2989 RMK A01 T01820183  RH  100%=      5-min Rain = 0
KWE2 271137Z 18006KT 18/18 A2989 RMK A01 T01820182  RH  100%=      5-min Rain = 0
KWE2 271138Z 18007KT 18/18 A2989 RMK A01 T01820182  RH  100%=      5-min Rain = 0
KWE2 271139Z 18006KT 18/18 A2989 RMK A01 T01810181  RH  100%=      5-min Rain = 0
KWE2 271140Z 18007KT 18/18 A2989 RMK A01 T01810181  RH  100%=      5-min Rain = 0
KWE2 271141Z 18006KT 18/18 A2989 RMK A01 T01810181  RH  100%=      5-min Rain = 0
KWE2 271142Z 18006KT 18/18 A2989 RMK A01 T01810181  RH  100%=      5-min Rain = 0
KWE2 271143Z 18007KT 18/18 A2989 RMK A01 T01800181  RH  100%=      5-min Rain = 0
KWE2 271144Z 18007KT 18/18 A2989 RMK A01 T01800180  RH  100%=      5-min Rain = 0
KWE2 271145Z 18007KT 18/18 A2989 RMK A01 T01800180  RH  100%=      5-min Rain = 0
KWE2 271146Z 18006KT 18/18 A2989 RMK A01 T01800180  RH  100%=      5-min Rain = 0
KWE2 271147Z 18006KT 18/18 A2989 RMK A01 T01790180  RH  100%=      5-min Rain = 0
KWE2 271148Z 18006KT 18/18 A2989 RMK A01 T01800180  RH  100%=      5-min Rain = 0
KWE2 271149Z 18007KT 18/18 A2989 RMK A01 T01790179  RH  100%=      5-min Rain = 0
KWE2 271150Z 18006KT 18/18 A2989 RMK A01 T01790179  RH  100%=      5-min Rain = 0
KWE2 271151Z 18006KT 18/18 A2989 RMK A01 T01790179  RH  100%=      5-min Rain = 0
KWE2 271152Z 18006KT 18/18 A2989 RMK A01 T01780178  RH  100%=      5-min Rain = 0
KWE2 271153Z 18006KT 18/18 A2989 RMK A01 T01780178  RH  100%=      5-min Rain = 0
KWE2 271154Z 18006KT 18/18 A2989 RMK A01 T01780178  RH  100%=      5-min Rain = 0
KWE2 271155Z 18006KT 18/18 A2989 RMK A01 T01780178  RH  100%=      5-min Rain = 0
KWE2 271156Z 18006KT 18/18 A2989 RMK A01 T01770178  RH  100%=      5-min Rain = 0
KWE2 271157Z 18006KT 18/18 A2989 RMK A01 T01770177  RH  100%=      5-min Rain = 0
KWE2 271158Z 18006KT 18/18 A2989 RMK A01 T01770177  RH  100%=      5-min Rain = 0
KWE2 271159Z 18006KT 18/18 A2989 RMK A01 T01770177  RH  100%=      5-min Rain = 0
KWE2 271200Z 18006KT 18/18 A2989 RMK A01 T01770177  RH  100%=      5-min Rain = 0
KWE2 271201Z 18006KT 18/18 A2989 RMK A01 T01760177  RH  100%=      5-min Rain = 0
KWE2 271202Z 18006KT 18/18 A2989 RMK A01 T01770177  RH  100%=      5-min Rain = 0
KWE2 271203Z 18006KT 18/18 A2989 RMK A01 T01760177  RH  100%=      5-min Rain = 0
KWE2 271204Z 18006KT 18/18 A2989 RMK A01 T01760176  RH  100%=      5-min Rain = 0
KWE2 271205Z 18006KT 18/18 A2989 RMK A01 T01760177  RH  100%=      5-min Rain = 0
KWE2 271206Z 18006KT 18/18 A2989 RMK A01 T01760176  RH  100%=      5-min Rain = 0
KWE2 271207Z 18006KT 18/18 A299 RMK A01 T01760176  RH  100%=      5-min Rain = 0
KWE2 271208Z 18006KT 18/18 A299 RMK A01 T01760176  RH  100%=      5-min Rain = 0
KWE2 271209Z 18006KT 18/18 A299 RMK A01 T01760177  RH  100%=      5-min Rain = 0
KWE2 271210Z 18006KT 18/18 A299 RMK A01 T01760176  RH  100%=      5-min Rain = 0
KWE2 271211Z 18006KT 18/18 A299 RMK A01 T01760176  RH  100%=      5-min Rain = 0
KWE2 271212Z 18006KT 18/18 A299 RMK A01 T01770177  RH  100%=      5-min Rain = 0
KWE2 271213Z 19006KT 18/18 A299 RMK A01 T01770177  RH  100%=      5-min Rain = 0
KWE2 271214Z 19006KT 18/18 A299 RMK A01 T01770177  RH  100%=      5-min Rain = 0
KWE2 271215Z 19006KT 18/18 A299 RMK A01 T01770177  RH  100%=      5-min Rain = 0
KWE2 271216Z 19006KT 18/18 A299 RMK A01 T01770178  RH  100%=      5-min Rain = 0
KWE2 271217Z 19006KT 18/18 A299 RMK A01 T01780178  RH  100%=      5-min Rain = 0
KWE2 271218Z 19006KT 18/18 A299 RMK A01 T01780178  RH  100%=      5-min Rain = 0
KWE2 271219Z 19006KT 18/18 A299 RMK A01 T01780179  RH  100%=      5-min Rain = 0
KWE2 271220Z 19006KT 18/18 A299 RMK A01 T01790179  RH  100%=      5-min Rain = 0
KWE2 271221Z 19006KT 18/18 A299 RMK A01 T01790179  RH  100%=      5-min Rain = 0
KWE2 271222Z 19006KT 18/18 A299 RMK A01 T01790180  RH  100%=      5-min Rain = 0
KWE2 271223Z 19006KT 18/18 A299 RMK A01 T01800180  RH  100%=      5-min Rain = 0
KWE2 271224Z 19006KT 18/18 A299 RMK A01 T01800180  RH  100%=      5-min Rain = 0
KWE2 271225Z 18006KT 18/18 A299 RMK A01 T01800181  RH  100%=      5-min Rain = 0
KWE2 271226Z 18006KT 18/18 A299 RMK A01 T01810181  RH  100%=      5-min Rain = 0
KWE2 271227Z 18006KT 18/18 A299 RMK A01 T01810181  RH  100%=      5-min Rain = 0
KWE2 271228Z 18006KT 18/18 A299 RMK A01 T01810182  RH  100%=      5-min Rain = 0
KWE2 271229Z 18006KT 18/18 A299 RMK A01 T01820182  RH  100%=      5-min Rain = 0
KWE2 271230Z 18006KT 18/18 A299 RMK A01 T01820182  RH  100%=      5-min Rain = 0
KWE2 271231Z 18006KT 18/18 A299 RMK A01 T01830183  RH  100%=      5-min Rain = 0
KWE2 271232Z 18006KT 18/18 A299 RMK A01 T01830183  RH  100%=      5-min Rain = 0
KWE2 271233Z 18006KT 18/18 A299 RMK A01 T01830183  RH  100%=      5-min Rain = 0
KWE2 271234Z 18007KT 18/18 A299 RMK A01 T01840184  RH  100%=      5-min Rain = 0
KWE2 271235Z 18007KT 18/18 A299 RMK A01 T01840184  RH  100%=      5-min Rain = 0
KWE2 271236Z 18007KT 19/19 A299 RMK A01 T01850185  RH  100%=      5-min Rain = 0
KWE2 271237Z 18007KT 19/19 A299 RMK A01 T01860186  RH  100%=      5-min Rain = 0
KWE2 271238Z 18006KT 19/19 A299 RMK A01 T01860186  RH  100%=      5-min Rain = 0
KWE2 271239Z 18007KT 19/19 A299 RMK A01 T01860187  RH  100%=      5-min Rain = 0
KWE2 271240Z 19007KT 19/19 A299 RMK A01 T01870187  RH  100%=      5-min Rain = 0
KWE2 271241Z 19006KT 19/19 A299 RMK A01 T01880188  RH  100%=      5-min Rain = 0
KWE2 271242Z 19006KT 19/19 A299 RMK A01 T01880188  RH  100%=      5-min Rain = 0
KWE2 271243Z 18007KT 19/19 A299 RMK A01 T01890189  RH  100%=      5-min Rain = 0
KWE2 271244Z 19007KT 19/19 A299 RMK A01 T01890190  RH  100%=      5-min Rain = 0
KWE2 271245Z 19007KT 19/19 A2991 RMK A01 T01900190  RH  100%=      5-min Rain = 0
KWE2 271246Z 19007KT 19/19 A2991 RMK A01 T01910191  RH  100%=      5-min Rain = 0
KWE2 271247Z 19008KT 19/19 A299 RMK A01 T01910191  RH  100%=      5-min Rain = 0
KWE2 271248Z 19008KT 19/19 A299 RMK A01 T01920192  RH  100%=      5-min Rain = 0
KWE2 271249Z 19007KT 19/19 A2991 RMK A01 T01920193  RH  100%=      5-min Rain = 0
KWE2 271250Z 19007KT 19/19 A2991 RMK A01 T01930193  RH  100%=      5-min Rain = 0
KWE2 271251Z 19008KT 19/19 A2991 RMK A01 T01940194  RH  100%=      5-min Rain = 0
KWE2 271252Z 19008KT 19/19 A2991 RMK A01 T01940194  RH  100%=      5-min Rain = 0
KWE2 271253Z 19007KT 19/19 A2991 RMK A01 T01940194  RH  100%=      5-min Rain = 0
KWE2 271254Z 19007KT 20/19 A2991 RMK A01 T01950194  RH  099%=      5-min Rain = 0
KWE2 271255Z 19007KT 20/19 A2991 RMK A01 T01950194  RH  099%=      5-min Rain = 0
KWE2 271256Z 19008KT 20/19 A299 RMK A01 T01960194  RH  099%=      5-min Rain = 0
KWE2 271257Z 19009KT 20/19 A299 RMK A01 T01960194  RH  099%=      5-min Rain = 0
KWE2 271258Z 19009KT 20/19 A299 RMK A01 T01970194  RH  098%=      5-min Rain = 0
KWE2 271259Z 19008KT 20/20 A299 RMK A01 T01970195  RH  098%=      5-min Rain = 0
KWE2 271300Z 19009KT 20/20 A299 RMK A01 T01980195  RH  098%=      5-min Rain = 0
KWE2 271301Z 19009KT 20/20 A299 RMK A01 T01980195  RH  098%=      5-min Rain = 0
KWE2 271302Z 19009KT 20/20 A299 RMK A01 T01990195  RH  098%=      5-min Rain = 0
KWE2 271303Z 19009KT 20/20 A299 RMK A01 T01990196  RH  098%=      5-min Rain = 0
KWE2 271304Z 19008KT 20/20 A2991 RMK A01 T01990195  RH  097%=      5-min Rain = 0
KWE2 271305Z 19009KT 20/20 A2991 RMK A01 T02000196  RH  097%=      5-min Rain = 0
KWE2 271306Z 19008KT 20/20 A2991 RMK A01 T02000196  RH  097%=      5-min Rain = 0
KWE2 271307Z 19009KT 20/20 A299 RMK A01 T02010197  RH  098%=      5-min Rain = 0
KWE2 271308Z 20010KT 20/20 A299 RMK A01 T02020196  RH  097%=      5-min Rain = 0
KWE2 271309Z 20010KT 20/20 A2991 RMK A01 T02020197  RH  097%=      5-min Rain = 0
KWE2 271310Z 19009KT 20/20 A2991 RMK A01 T02030197  RH  096%=      5-min Rain = 0
KWE2 271311Z 19011KT 20/20 A2991 RMK A01 T02040197  RH  096%=      5-min Rain = 0
KWE2 271312Z 19011KT 20/20 A2991 RMK A01 T02040197  RH  096%=      5-min Rain = 0
KWE2 271313Z 19010KT 20/20 A2991 RMK A01 T02040197  RH  095%=      5-min Rain = 0
KWE2 271314Z 19010KT 21/20 A2991 RMK A01 T02050197  RH  095%=      5-min Rain = 0
KWE2 271315Z 20009KT 21/20 A2991 RMK A01 T02050197  RH  095%=      5-min Rain = 0
KWE2 271316Z 20009KT 21/20 A2991 RMK A01 T02060199  RH  095%=      5-min Rain = 0
KWE2 271317Z 20011KT 21/20 A2991 RMK A01 T02070199  RH  095%=      5-min Rain = 0
KWE2 271318Z 20010KT 21/20 A2991 RMK A01 T02080197  RH  094%=      5-min Rain = 0
KWE2 271319Z 20012KT 21/20 A2991 RMK A01 T02080196  RH  093%=      5-min Rain = 0
KWE2 271320Z 20010KT 21/20 A2991 RMK A01 T02080197  RH  093%=      5-min Rain = 0
KWE2 271321Z 20011KT 21/20 A2991 RMK A01 T02090198  RH  094%=      5-min Rain = 0
KWE2 271322Z 20011KT 21/20 A2991 RMK A01 T02090197  RH  092%=      5-min Rain = 0
KWE2 271323Z 20012KT 21/20 A2991 RMK A01 T02090197  RH  093%=      5-min Rain = 0
KWE2 271324Z 20011KT 21/20 A2991 RMK A01 T02100197  RH  092%=      5-min Rain = 0
KWE2 271325Z 20010KT 21/20 A2991 RMK A01 T02100197  RH  092%=      5-min Rain = 0
KWE2 271326Z 20010KT 21/20 A2991 RMK A01 T02100198  RH  092%=      5-min Rain = 0
KWE2 271327Z 20010KT 21/20 A2991 RMK A01 T02110197  RH  092%=      5-min Rain = 0
KWE2 271328Z 20010KT 21/20 A2991 RMK A01 T02110197  RH  092%=      5-min Rain = 0
KWE2 271329Z 20010KT 21/20 A2991 RMK A01 T02120197  RH  091%=      5-min Rain = 0
KWE2 271330Z 20012KT 21/20 A2991 RMK A01 T02120197  RH  091%=      5-min Rain = 0
KWE2 271331Z 20010KT 21/20 A2991 RMK A01 T02130198  RH  091%=      5-min Rain = 0
KWE2 271332Z 20010KT 21/20 A2991 RMK A01 T02140197  RH  090%=      5-min Rain = 0
KWE2 271333Z 20013KT 21/20 A2991 RMK A01 T02140197  RH  090%=      5-min Rain = 0
KWE2 271334Z 20013KT 21/20 A2991 RMK A01 T02140196  RH  090%=      5-min Rain = 0
KWE2 271335Z 20013KT 21/20 A2991 RMK A01 T02140196  RH  089%=      5-min Rain = 0
KWE2 271336Z 20013KT 21/20 A2991 RMK A01 T02140196  RH  089%=      5-min Rain = 0
KWE2 271337Z 20012KT 22/20 A2991 RMK A01 T02150196  RH  089%=      5-min Rain = 0
KWE2 271338Z 20012KT 22/20 A2991 RMK A01 T02150197  RH  090%=      5-min Rain = 0
KWE2 271339Z 20011KT 22/20 A2991 RMK A01 T02150198  RH  090%=      5-min Rain = 0
KWE2 271340Z 20012KT 22/20 A2991 RMK A01 T02160198  RH  089%=      5-min Rain = 0
KWE2 271341Z 20013KT 22/20 A2991 RMK A01 T02170196  RH  088%=      5-min Rain = 0
KWE2 271342Z 20012KT 22/20 A2991 RMK A01 T02170196  RH  087%=      5-min Rain = 0
KWE2 271343Z 20014KT 22/20 A2991 RMK A01 T02180197  RH  088%=      5-min Rain = 0
KWE2 271344Z 20012KT 22/20 A2991 RMK A01 T02180195  RH  087%=      5-min Rain = 0
KWE2 271345Z 20011KT 22/20 A2991 RMK A01 T02180196  RH  087%=      5-min Rain = 0
KWE2 271346Z 20012KT 22/20 A2991 RMK A01 T02180196  RH  087%=      5-min Rain = 0
KWE2 271347Z 21014KT 22/20 A2991 RMK A01 T02190196  RH  087%=      5-min Rain = 0
KWE2 271348Z 21013KT 22/20 A2991 RMK A01 T02190195  RH  086%=      5-min Rain = 0
KWE2 271349Z 20012KT 22/19 A2991 RMK A01 T02190194  RH  086%=      5-min Rain = 0
KWE2 271350Z 20014KT 22/20 A2991 RMK A01 T02200195  RH  086%=      5-min Rain = 0
KWE2 271351Z 20014KT 22/19 A2991 RMK A01 T02200194  RH  085%=      5-min Rain = 0
KWE2 271352Z 20014KT 22/20 A2991 RMK A01 T02200195  RH  085%=      5-min Rain = 0
KWE2 271353Z 20012KT 22/20 A2991 RMK A01 T02210196  RH  085%=      5-min Rain = 0
KWE2 271354Z 20014KT 22/20 A2991 RMK A01 T02230195  RH  085%=      5-min Rain = 0
KWE2 271355Z 20015KT 22/19 A2991 RMK A01 T02230193  RH  083%=      5-min Rain = 0
KWE2 271356Z 20014KT 22/19 A2991 RMK A01 T02240193  RH  083%=      5-min Rain = 0
KWE2 271357Z 20015KT 22/19 A2991 RMK A01 T02240192  RH  082%=      5-min Rain = 0
KWE2 271358Z 20015KT 22/19 A2991 RMK A01 T02240192  RH  082%=      5-min Rain = 0
KWE2 271359Z 20015KT 23/19 A2991 RMK A01 T02250192  RH  082%=      5-min Rain = 0
KWE2 271400Z 20015KT 23/19 A2991 RMK A01 T02250192  RH  082%=      5-min Rain = 0
KWE2 271401Z 20014KT 23/19 A2991 RMK A01 T02250192  RH  082%=      5-min Rain = 0
KWE2 271402Z 20013KT 22/19 A2991 RMK A01 T02240192  RH  082%=      5-min Rain = 0
KWE2 271403Z 20012KT 23/19 A2991 RMK A01 T02250193  RH  082%=      5-min Rain = 0
KWE2 271404Z 20012KT 23/19 A2991 RMK A01 T02270194  RH  082%=      5-min Rain = 0
KWE2 271405Z 21012KT 23/19 A2991 RMK A01 T02290194  RH  080%=      5-min Rain = 0
KWE2 271406Z 21012KT 23/19 A2991 RMK A01 T02300192  RH  079%=      5-min Rain = 0
KWE2 271407Z 20014KT 23/19 A2991 RMK A01 T02290192  RH  080%=      5-min Rain = 0
KWE2 271408Z 20014KT 23/19 A2991 RMK A01 T02290191  RH  079%=      5-min Rain = 0
KWE2 271409Z 20012KT 23/19 A2991 RMK A01 T02290191  RH  079%=      5-min Rain = 0
KWE2 271410Z 21013KT 23/19 A2991 RMK A01 T02300192  RH  079%=      5-min Rain = 0
KWE2 271411Z 20014KT 23/19 A2991 RMK A01 T02310191  RH  078%=      5-min Rain = 0
KWE2 271412Z 20013KT 23/19 A2991 RMK A01 T02310190  RH  078%=      5-min Rain = 0
KWE2 271413Z 20013KT 23/19 A2991 RMK A01 T02310190  RH  078%=      5-min Rain = 0
KWE2 271414Z 20014KT 23/19 A2991 RMK A01 T02310189  RH  077%=      5-min Rain = 0
KWE2 271415Z 20013KT 23/19 A2991 RMK A01 T02310190  RH  077%=      5-min Rain = 0
KWE2 271416Z 21013KT 23/19 A2991 RMK A01 T02320190  RH  077%=      5-min Rain = 0
KWE2 271417Z 21013KT 23/19 A2991 RMK A01 T02320189  RH  076%=      5-min Rain = 0
KWE2 271418Z 21012KT 23/19 A2991 RMK A01 T02330188  RH  076%=      5-min Rain = 0
KWE2 271419Z 21011KT 23/19 A2991 RMK A01 T02340190  RH  076%=      5-min Rain = 0
KWE2 271420Z 21013KT 23/19 A2991 RMK A01 T02340188  RH  075%=      5-min Rain = 0
KWE2 271421Z 20013KT 24/19 A2991 RMK A01 T02350189  RH  076%=      5-min Rain = 0
KWE2 271422Z 20012KT 24/19 A2991 RMK A01 T02350189  RH  075%=      5-min Rain = 0
KWE2 271423Z 20011KT 23/19 A2991 RMK A01 T02340189  RH  076%=      5-min Rain = 0
KWE2 271424Z 21012KT 24/19 A2991 RMK A01 T02350190  RH  076%=      5-min Rain = 0
KWE2 271425Z 20011KT 24/19 A2991 RMK A01 T02360189  RH  075%=      5-min Rain = 0
KWE2 271426Z 21012KT 24/19 A2991 RMK A01 T02380189  RH  074%=      5-min Rain = 0
KWE2 271427Z 21012KT 24/19 A2991 RMK A01 T02380188  RH  073%=      5-min Rain = 0
KWE2 271428Z 20011KT 24/19 A2991 RMK A01 T02390190  RH  074%=      5-min Rain = 0
KWE2 271429Z 21013KT 24/19 A2991 RMK A01 T02410188  RH  073%=      5-min Rain = 0
KWE2 271430Z 21012KT 24/19 A2991 RMK A01 T02400188  RH  072%=      5-min Rain = 0
KWE2 271431Z 22014KT 24/19 A2991 RMK A01 T02390185  RH  072%=      5-min Rain = 0
KWE2 271432Z 22013KT 24/19 A2991 RMK A01 T02390185  RH  072%=      5-min Rain = 0
KWE2 271433Z 20011KT 24/19 A2991 RMK A01 T02390186  RH  072%=      5-min Rain = 0
KWE2 271434Z 20012KT 24/19 A2991 RMK A01 T02390186  RH  072%=      5-min Rain = 0
KWE2 271435Z 20014KT 24/19 A2991 RMK A01 T02410186  RH  071%=      5-min Rain = 0
KWE2 271436Z 21012KT 24/19 A2991 RMK A01 T02420186  RH  071%=      5-min Rain = 0
KWE2 271437Z 20011KT 24/19 A2991 RMK A01 T02430185  RH  070%=      5-min Rain = 0
KWE2 271438Z 21010KT 25/18 A2991 RMK A01 T02450183  RH  069%=      5-min Rain = 0
KWE2 271439Z 20012KT 25/18 A2991 RMK A01 T02450184  RH  069%=      5-min Rain = 0
KWE2 271440Z 20011KT 25/18 A2991 RMK A01 T02450184  RH  069%=      5-min Rain = 0
KWE2 271441Z 21012KT 25/19 A2991 RMK A01 T02460185  RH  069%=      5-min Rain = 0
KWE2 271442Z 20011KT 25/18 A2991 RMK A01 T02480184  RH  068%=      5-min Rain = 0
KWE2 271443Z 21013KT 25/18 A2991 RMK A01 T02480180  RH  066%=      5-min Rain = 0
KWE2 271444Z 22014KT 25/18 A2991 RMK A01 T02480177  RH  064%=      5-min Rain = 0
KWE2 271445Z 21013KT 25/17 A2991 RMK A01 T02480174  RH  063%=      5-min Rain = 0
KWE2 271446Z 22012KT 25/17 A2991 RMK A01 T02480173  RH  063%=      5-min Rain = 0
KWE2 271447Z 23012KT 25/18 A2991 RMK A01 T02480176  RH  064%=      5-min Rain = 0
KWE2 271448Z 21011KT 25/18 A2991 RMK A01 T02500178  RH  064%=      5-min Rain = 0
KWE2 271449Z 21013KT 25/18 A2991 RMK A01 T02510176  RH  063%=      5-min Rain = 0
KWE2 271450Z 21013KT 25/18 A2991 RMK A01 T02510179  RH  064%=      5-min Rain = 0
KWE2 271451Z 22013KT 25/17 A2991 RMK A01 T02500174  RH  062%=      5-min Rain = 0
KWE2 271452Z 22011KT 25/17 A2991 RMK A01 T02500172  RH  062%=      5-min Rain = 0
KWE2 271453Z 21013KT 25/18 A2991 RMK A01 T02500176  RH  063%=      5-min Rain = 0
KWE2 271454Z 21013KT 25/17 A2991 RMK A01 T02520171  RH  061%=      5-min Rain = 0
KWE2 271455Z 21013KT 25/17 A2991 RMK A01 T02510172  RH  061%=      5-min Rain = 0
KWE2 271456Z 21014KT 25/17 A2991 RMK A01 T02510170  RH  061%=      5-min Rain = 0
KWE2 271457Z 21015KT 25/17 A2991 RMK A01 T02510171  RH  061%=      5-min Rain = 0
KWE2 271458Z 21014KT 25/17 A2991 RMK A01 T02520169  RH  060%=      5-min Rain = 0
KWE2 271459Z 22012KT 25/17 A2991 RMK A01 T02530172  RH  061%=      5-min Rain = 0
KWE2 271500Z 21012KT 25/17 A2991 RMK A01 T02520172  RH  061%=      5-min Rain = 0
KWE2 271501Z 21014KT 25/17 A2991 RMK A01 T02530172  RH  061%=      5-min Rain = 0
KWE2 271502Z 21013KT 25/17 A2991 RMK A01 T02540169  RH  059%=      5-min Rain = 0
KWE2 271503Z 21013KT 26/17 A299 RMK A01 T02550169  RH  059%=      5-min Rain = 0
KWE2 271504Z 21012KT 26/17 A299 RMK A01 T02560168  RH  058%=      5-min Rain = 0
KWE2 271505Z 20014KT 26/17 A2991 RMK A01 T02570170  RH  059%=      5-min Rain = 0
KWE2 271506Z 19013KT 26/17 A2991 RMK A01 T02580171  RH  059%=      5-min Rain = 0
KWE2 271507Z 20013KT 26/17 A2991 RMK A01 T02590170  RH  058%=      5-min Rain = 0
KWE2 271508Z 21012KT 26/17 A2991 RMK A01 T02580170  RH  058%=      5-min Rain = 0
KWE2 271509Z 22013KT 26/17 A2991 RMK A01 T02620167  RH  056%=      5-min Rain = 0
KWE2 271510Z 23012KT 26/16 A2991 RMK A01 T02630161  RH  053%=      5-min Rain = 0
KWE2 271511Z 21013KT 26/16 A2991 RMK A01 T02620161  RH  054%=      5-min Rain = 0
KWE2 271512Z 20013KT 26/16 A2991 RMK A01 T02610161  RH  054%=      5-min Rain = 0
KWE2 271513Z 21013KT 26/16 A2991 RMK A01 T02610163  RH  055%=      5-min Rain = 0
KWE2 271514Z 21011KT 26/17 A2991 RMK A01 T02610166  RH  056%=      5-min Rain = 0
KWE2 271515Z 21011KT 26/17 A2991 RMK A01 T02610166  RH  056%=      5-min Rain = 0
KWE2 271516Z 21014KT 26/16 A2991 RMK A01 T02630163  RH  054%=      5-min Rain = 0
KWE2 271517Z 20014KT 26/16 A2991 RMK A01 T02640161  RH  053%=      5-min Rain = 0
KWE2 271518Z 21014KT 27/16 A2991 RMK A01 T02650160  RH  052%=      5-min Rain = 0
KWE2 271519Z 21013KT 27/16 A2991 RMK A01 T02650160  RH  053%=      5-min Rain = 0
KWE2 271520Z 22013KT 26/16 A2991 RMK A01 T02640163  RH  054%=      5-min Rain = 0
KWE2 271521Z 21013KT 26/16 A2991 RMK A01 T02640163  RH  054%=      5-min Rain = 0
KWE2 271522Z 21015KT 26/16 A2991 RMK A01 T02640159  RH  052%=      5-min Rain = 0
KWE2 271523Z 21012KT 27/16 A2991 RMK A01 T02660156  RH  051%=      5-min Rain = 0
KWE2 271524Z 20012KT 27/16 A2991 RMK A01 T02660162  RH  053%=      5-min Rain = 0
KWE2 271525Z 21013KT 27/16 A2991 RMK A01 T02680162  RH  052%=      5-min Rain = 0
KWE2 271526Z 21014KT 27/16 A2991 RMK A01 T02690157  RH  050%=      5-min Rain = 0
KWE2 271527Z 20014KT 27/16 A2991 RMK A01 T02680156  RH  050%=      5-min Rain = 0
KWE2 271528Z 21012KT 27/16 A2991 RMK A01 T02670156  RH  050%=      5-min Rain = 0
KWE2 271529Z 21014KT 27/15 A2991 RMK A01 T02680154  RH  049%=      5-min Rain = 0
KWE2 271530Z 22015KT 27/15 A2991 RMK A01 T02710150  RH  047%=      5-min Rain = 0
KWE2 271531Z 20013KT 27/15 A2991 RMK A01 T02710148  RH  047%=      5-min Rain = 0
KWE2 271532Z 20013KT 27/15 A2991 RMK A01 T02700148  RH  047%=      5-min Rain = 0
KWE2 271533Z 21013KT 27/15 A2991 RMK A01 T02710151  RH  048%=      5-min Rain = 0
KWE2 271534Z 22011KT 27/15 A299 RMK A01 T02720150  RH  047%=      5-min Rain = 0
KWE2 271535Z 21009KT 27/15 A299 RMK A01 T02700153  RH  049%=      5-min Rain = 0
KWE2 271536Z 19012KT 27/15 A299 RMK A01 T02730149  RH  047%=      5-min Rain = 0
KWE2 271537Z 22013KT 27/15 A299 RMK A01 T02730148  RH  046%=      5-min Rain = 0
KWE2 271538Z 21012KT 27/15 A299 RMK A01 T02740147  RH  046%=      5-min Rain = 0
KWE2 271539Z 20013KT 28/15 A299 RMK A01 T02750148  RH  046%=      5-min Rain = 0
KWE2 271540Z 21011KT 28/15 A299 RMK A01 T02750146  RH  045%=      5-min Rain = 0
KWE2 271541Z 23011G16KT 28/13 A299 RMK A01 T02760132  RH  041%=      5-min Rain = 0
KWE2 271542Z 21015KT 28/14 A299 RMK A01 T02780140  RH  043%=      5-min Rain = 0
KWE2 271543Z 21013KT 28/14 A299 RMK A01 T02780142  RH  043%=      5-min Rain = 0
KWE2 271544Z 22013KT 28/14 A299 RMK A01 T02780135  RH  041%=      5-min Rain = 0
KWE2 271545Z 21015KT 28/13 A299 RMK A01 T02760131  RH  041%=      5-min Rain = 0
KWE2 271546Z 22015KT 28/12 A299 RMK A01 T02780123  RH  038%=      5-min Rain = 0
KWE2 271547Z 22011G16KT 28/12 A299 RMK A01 T02790123  RH  038%=      5-min Rain = 0
KWE2 271548Z 22011KT 28/13 A299 RMK A01 T02800128  RH  039%=      5-min Rain = 0
KWE2 271549Z 22014KT 28/13 A299 RMK A01 T02790130  RH  040%=      5-min Rain = 0
KWE2 271550Z 22013KT 28/13 A299 RMK A01 T02790125  RH  039%=      5-min Rain = 0
KWE2 271551Z 22011KT 28/13 A299 RMK A01 T02810127  RH  039%=      5-min Rain = 0
KWE2 271552Z 22014KT 28/13 A299 RMK A01 T02840125  RH  038%=      5-min Rain = 0
KWE2 271553Z 22014KT 28/12 A299 RMK A01 T02830119  RH  036%=      5-min Rain = 0
KWE2 271554Z 22014KT 28/12 A299 RMK A01 T02820117  RH  036%=      5-min Rain = 0
KWE2 271555Z 22012KT 28/12 A299 RMK A01 T02820116  RH  036%=      5-min Rain = 0
KWE2 271556Z 23014KT 28/12 A299 RMK A01 T02820121  RH  037%=      5-min Rain = 0
KWE2 271557Z 23014KT 28/12 A299 RMK A01 T02820119  RH  036%=      5-min Rain = 0
KWE2 271558Z 22011KT 28/12 A299 RMK A01 T02820120  RH  037%=      5-min Rain = 0
KWE2 271559Z 21011KT 28/12 A299 RMK A01 T02830121  RH  037%=      5-min Rain = 0
KWE2 271600Z 22010KT 28/13 A299 RMK A01 T02840125  RH  038%=      5-min Rain = 0
KWE2 271601Z 24014KT 29/12 A299 RMK A01 T02850121  RH  036%=      5-min Rain = 0
KWE2 271602Z 23013KT 29/12 A299 RMK A01 T02860119  RH  035%=      5-min Rain = 0
KWE2 271603Z 23010KT 29/12 A299 RMK A01 T02850121  RH  036%=      5-min Rain = 0
KWE2 271604Z 23012KT 28/12 A299 RMK A01 T02840119  RH  036%=      5-min Rain = 0
KWE2 271605Z 22012KT 28/12 A299 RMK A01 T02840120  RH  036%=      5-min Rain = 0
KWE2 271606Z 23012KT 28/12 A299 RMK A01 T02840119  RH  036%=      5-min Rain = 0
KWE2 271607Z 22009KT 28/12 A299 RMK A01 T02830120  RH  036%=      5-min Rain = 0
KWE2 271608Z 24010KT 29/13 A299 RMK A01 T02850125  RH  037%=      5-min Rain = 0
KWE2 271609Z 22012G18KT 29/12 A299 RMK A01 T02900118  RH  034%=      5-min Rain = 0
KWE2 271610Z 22014KT 29/12 A299 RMK A01 T02910116  RH  034%=      5-min Rain = 0
KWE2 271611Z 22010KT 29/12 A299 RMK A01 T02900116  RH  034%=      5-min Rain = 0
KWE2 271612Z 21011KT 29/11 A299 RMK A01 T02890113  RH  034%=      5-min Rain = 0
KWE2 271613Z 22010KT 29/11 A299 RMK A01 T02880110  RH  033%=      5-min Rain = 0
KWE2 271614Z 21013KT 29/11 A299 RMK A01 T02870114  RH  034%=      5-min Rain = 0
KWE2 271615Z 21011KT 29/12 A299 RMK A01 T02880118  RH  035%=      5-min Rain = 0
KWE2 271616Z 21011KT 29/12 A299 RMK A01 T02890118  RH  035%=      5-min Rain = 0
KWE2 271617Z 23010KT 29/12 A299 RMK A01 T02910121  RH  035%=      5-min Rain = 0
KWE2 271618Z 23012KT 29/12 A299 RMK A01 T02940119  RH  034%=      5-min Rain = 0
KWE2 271619Z 23011KT 30/12 A299 RMK A01 T02950116  RH  033%=      5-min Rain = 0
KWE2 271620Z 24011KT 30/11 A299 RMK A01 T02950108  RH  031%=      5-min Rain = 0
KWE2 271621Z 23011KT 29/11 A299 RMK A01 T02930109  RH  032%=      5-min Rain = 0
KWE2 271622Z 24010KT 29/11 A299 RMK A01 T02920109  RH  032%=      5-min Rain = 0
KWE2 271623Z 22014KT 29/11 A299 RMK A01 T02940106  RH  031%=      5-min Rain = 0
KWE2 271624Z 23014KT 30/10 A299 RMK A01 T02950102  RH  030%=      5-min Rain = 0
KWE2 271625Z 22010KT 30/10 A299 RMK A01 T02960104  RH  030%=      5-min Rain = 0
KWE2 271631Z 25013KT 30/09 A299 RMK A01 T03030091  RH  027%=      5-min Rain = 0
KWE2 271632Z 26011KT 30/09 A299 RMK A01 T03000085  RH  026%=      5-min Rain = 0
KWE2 271633Z 25009KT 30/08 A299 RMK A01 T02990079  RH  025%=      5-min Rain = 0
KWE2 271634Z 26009KT 30/08 A299 RMK A01 T02980079  RH  025%=      5-min Rain = 0
KWE2 271635Z 23013KT 30/10 A299 RMK A01 T02990095  RH  028%=      5-min Rain = 0
KWE2 271636Z 22012KT 30/10 A299 RMK A01 T03000096  RH  028%=      5-min Rain = 0
KWE2 271637Z 21010KT 30/10 A299 RMK A01 T02990096  RH  028%=      5-min Rain = 0
KWE2 271638Z 20010KT 30/09 A299 RMK A01 T02990093  RH  028%=      5-min Rain = 0
KWE2 271639Z 22013KT 30/10 A299 RMK A01 T03000095  RH  028%=      5-min Rain = 0
KWE2 271640Z 24016KT 30/08 A299 RMK A01 T03000081  RH  025%=      5-min Rain = 0
KWE2 271641Z 26012KT 30/07 A299 RMK A01 T03010071  RH  024%=      5-min Rain = 0
KWE2 271642Z 26012KT 31/08 A299 RMK A01 T03050077  RH  024%=      5-min Rain = 0
KWE2 271643Z 25012KT 31/08 A299 RMK A01 T03060078  RH  024%=      5-min Rain = 0
KWE2 271644Z 24010KT 31/08 A299 RMK A01 T03050083  RH  025%=      5-min Rain = 0
KWE2 271645Z 22008KT 31/09 A299 RMK A01 T03050086  RH  026%=      5-min Rain = 0
KWE2 271646Z 22009KT 31/09 A299 RMK A01 T03060086  RH  025%=      5-min Rain = 0
KWE2 271647Z 25008KT 31/08 A299 RMK A01 T03070081  RH  024%=      5-min Rain = 0
KWE2 271648Z 25007KT 30/07 A299 RMK A01 T03030074  RH  024%=      5-min Rain = 0
KWE2 271649Z 24012KT 30/08 A299 RMK A01 T03010077  RH  025%=      5-min Rain = 0
KWE2 271650Z 22011KT 30/08 A299 RMK A01 T03040078  RH  024%=      5-min Rain = 0
KWE2 271651Z 21010KT 31/08 A299 RMK A01 T03060083  RH  025%=      5-min Rain = 0
KWE2 271652Z 25011KT 31/08 A299 RMK A01 T03070080  RH  024%=      5-min Rain = 0
KWE2 271653Z 24009KT 31/07 A299 RMK A01 T03060071  RH  023%=      5-min Rain = 0
KWE2 271654Z 25010KT 30/07 A299 RMK A01 T03040069  RH  023%=      5-min Rain = 0
KWE2 271655Z 24011KT 30/07 A299 RMK A01 T03040072  RH  023%=      5-min Rain = 0
KWE2 271656Z 25012KT 31/07 A299 RMK A01 T03080072  RH  023%=      5-min Rain = 0
KWE2 271657Z 22012KT 31/08 A299 RMK A01 T03120076  RH  023%=      5-min Rain = 0
KWE2 271658Z 22009KT 31/08 A299 RMK A01 T03100079  RH  024%=      5-min Rain = 0
KWE2 271659Z 25009KT 31/08 A299 RMK A01 T03080081  RH  024%=      5-min Rain = 0
KWE2 271700Z 23010KT 31/08 A299 RMK A01 T03080080  RH  024%=      5-min Rain = 0
KWE2 271701Z 21009KT 31/08 A2989 RMK A01 T03080081  RH  024%=      5-min Rain = 0
KWE2 271702Z 21009KT 31/08 A2989 RMK A01 T03060082  RH  025%=      5-min Rain = 0
KWE2 271703Z 22008KT 31/08 A2989 RMK A01 T03060083  RH  025%=      5-min Rain = 0
KWE2 271704Z 24009KT 31/08 A2989 RMK A01 T03090082  RH  024%=      5-min Rain = 0
KWE2 271705Z 25010KT 31/07 A2989 RMK A01 T03130072  RH  022%=      5-min Rain = 0
KWE2 271706Z 24010KT 31/07 A2989 RMK A01 T03100067  RH  022%=      5-min Rain = 0
KWE2 271707Z 24013KT 31/07 A2989 RMK A01 T03090069  RH  022%=      5-min Rain = 0
KWE2 271708Z 23012KT 31/08 A2989 RMK A01 T03110079  RH  024%=      5-min Rain = 0
KWE2 271709Z 23010KT 31/08 A2989 RMK A01 T03100083  RH  024%=      5-min Rain = 0
KWE2 271710Z 24010KT 31/08 A2989 RMK A01 T03090084  RH  025%=      5-min Rain = 0
KWE2 271711Z 20008KT 31/09 A2989 RMK A01 T03090086  RH  025%=      5-min Rain = 0
KWE2 271712Z 22008KT 31/09 A2989 RMK A01 T03090086  RH  025%=      5-min Rain = 0
KWE2 271713Z 21010KT 31/09 A2989 RMK A01 T03090087  RH  025%=      5-min Rain = 0
KWE2 271714Z 22015KT 31/08 A2989 RMK A01 T03100083  RH  024%=      5-min Rain = 0
KWE2 271715Z 22014KT 31/08 A2989 RMK A01 T03120078  RH  023%=      5-min Rain = 0
KWE2 271716Z 23014KT 31/08 A2989 RMK A01 T03110075  RH  023%=      5-min Rain = 0
KWE2 271717Z 24011KT 31/07 A2989 RMK A01 T03100070  RH  022%=      5-min Rain = 0
KWE2 271718Z 22011G16KT 31/07 A2989 RMK A01 T03100071  RH  022%=      5-min Rain = 0
KWE2 271719Z 22010KT 31/08 A2989 RMK A01 T03090084  RH  025%=      5-min Rain = 0
KWE2 271720Z 23008KT 31/09 A2989 RMK A01 T03090086  RH  025%=      5-min Rain = 0
KWE2 271721Z 21007KT 31/09 A2989 RMK A01 T03070088  RH  026%=      5-min Rain = 0
KWE2 271722Z 20007KT 31/09 A2988 RMK A01 T03070088  RH  026%=      5-min Rain = 0
KWE2 271723Z 21007KT 31/09 A2988 RMK A01 T03080086  RH  025%=      5-min Rain = 0
KWE2 271724Z 22010KT 31/08 A2988 RMK A01 T03090081  RH  024%=      5-min Rain = 0
KWE2 271725Z 23010KT 31/08 A2988 RMK A01 T03110084  RH  024%=      5-min Rain = 0
KWE2 271726Z 21014KT 31/09 A2988 RMK A01 T03140087  RH  024%=      5-min Rain = 0
KWE2 271727Z 23011KT 32/08 A2988 RMK A01 T03170083  RH  023%=      5-min Rain = 0
KWE2 271728Z 23010KT 31/09 A2988 RMK A01 T03140086  RH  024%=      5-min Rain = 0
KWE2 271729Z 21008KT 31/09 A2988 RMK A01 T03100086  RH  025%=      5-min Rain = 0
KWE2 271730Z 21008KT 31/09 A2988 RMK A01 T03090088  RH  025%=      5-min Rain = 0
KWE2 271731Z 23010KT 31/08 A2988 RMK A01 T03120080  RH  024%=      5-min Rain = 0
KWE2 271732Z 23012KT 31/08 A2988 RMK A01 T03110076  RH  023%=      5-min Rain = 0
KWE2 271733Z 24008KT 31/08 A2988 RMK A01 T03100076  RH  023%=      5-min Rain = 0
KWE2 271734Z 20011KT 31/08 A2988 RMK A01 T03090084  RH  025%=      5-min Rain = 0
KWE2 271735Z 19013KT 31/09 A2988 RMK A01 T03120085  RH  024%=      5-min Rain = 0
KWE2 271736Z 21011G17KT 31/09 A2988 RMK A01 T03130085  RH  024%=      5-min Rain = 0
KWE2 271737Z 23007KT 31/09 A2988 RMK A01 T03100085  RH  025%=      5-min Rain = 0
KWE2 271738Z 21008KT 31/09 A2988 RMK A01 T03100087  RH  025%=      5-min Rain = 0
KWE2 271739Z 23007KT 31/09 A2988 RMK A01 T03100086  RH  025%=      5-min Rain = 0
KWE2 271740Z 21011KT 31/09 A2988 RMK A01 T03130086  RH  025%=      5-min Rain = 0
KWE2 271741Z 22012KT 32/08 A2988 RMK A01 T03150083  RH  024%=      5-min Rain = 0
KWE2 271742Z 24011KT 32/08 A2988 RMK A01 T03150080  RH  023%=      5-min Rain = 0
KWE2 271743Z 23010KT 32/08 A2988 RMK A01 T03160076  RH  023%=      5-min Rain = 0
KWE2 271744Z 24012KT 32/08 A2988 RMK A01 T03160079  RH  023%=      5-min Rain = 0
KWE2 271745Z 23012KT 31/08 A2988 RMK A01 T03140080  RH  023%=      5-min Rain = 0
KWE2 271746Z 23009KT 32/08 A2988 RMK A01 T03150079  RH  023%=      5-min Rain = 0
KWE2 271747Z 23010KT 32/08 A2988 RMK A01 T03150081  RH  023%=      5-min Rain = 0
KWE2 271748Z 24009KT 32/08 A2988 RMK A01 T03170080  RH  023%=      5-min Rain = 0
KWE2 271749Z 23009KT 32/08 A2988 RMK A01 T03150077  RH  023%=      5-min Rain = 0
KWE2 271750Z 24006KT 31/08 A2988 RMK A01 T03130078  RH  023%=      5-min Rain = 0
KWE2 271751Z 24009KT 31/08 A2988 RMK A01 T03140078  RH  023%=      5-min Rain = 0
KWE2 271752Z 23008KT 32/08 A2988 RMK A01 T03160080  RH  023%=      5-min Rain = 0
KWE2 271753Z 20009KT 32/08 A2988 RMK A01 T03190084  RH  023%=      5-min Rain = 0
KWE2 271754Z 20009KT 32/09 A2988 RMK A01 T03190087  RH  024%=      5-min Rain = 0
KWE2 271755Z 18009KT 32/09 A2988 RMK A01 T03170088  RH  024%=      5-min Rain = 0
KWE2 271756Z 20010KT 32/09 A2988 RMK A01 T03190090  RH  024%=      5-min Rain = 0
KWE2 271757Z 21009KT 32/08 A2988 RMK A01 T03220084  RH  023%=      5-min Rain = 0
KWE2 271758Z 22006KT 32/09 A2988 RMK A01 T03200085  RH  023%=      5-min Rain = 0
KWE2 271759Z 23009KT 32/08 A2988 RMK A01 T03200083  RH  023%=      5-min Rain = 0
KWE2 271800Z 20010KT 32/09 A2988 RMK A01 T03210085  RH  023%=      5-min Rain = 0
KWE2 271801Z 20010KT 32/09 A2988 RMK A01 T03200088  RH  024%=      5-min Rain = 0
KWE2 271802Z 18010KT 32/09 A2988 RMK A01 T03170092  RH  025%=      5-min Rain = 0
KWE2 271803Z 17008KT 32/09 A2988 RMK A01 T03180093  RH  025%=      5-min Rain = 0
KWE2 271804Z 18006KT 32/10 A2988 RMK A01 T03190099  RH  026%=      5-min Rain = 0
KWE2 271805Z 21007KT 32/10 A2988 RMK A01 T03170100  RH  026%=      5-min Rain = 0
KWE2 271806Z 21011G16KT 32/09 A2987 RMK A01 T03180093  RH  025%=      5-min Rain = 0
KWE2 271807Z 19012KT 32/09 A2987 RMK A01 T03230094  RH  024%=      5-min Rain = 0
KWE2 271808Z 22014KT 32/10 A2987 RMK A01 T03240095  RH  024%=      5-min Rain = 0
KWE2 271809Z 21013KT 32/10 A2987 RMK A01 T03230096  RH  025%=      5-min Rain = 0
KWE2 271810Z 21011KT 32/10 A2987 RMK A01 T03230099  RH  025%=      5-min Rain = 0
KWE2 271811Z 23010KT 32/10 A2987 RMK A01 T03230097  RH  025%=      5-min Rain = 0
KWE2 271812Z 23014KT 32/10 A2987 RMK A01 T03220098  RH  025%=      5-min Rain = 0
KWE2 271813Z 23011KT 32/10 A2987 RMK A01 T03200100  RH  026%=      5-min Rain = 0
KWE2 271814Z 21009KT 32/10 A2987 RMK A01 T03200098  RH  026%=      5-min Rain = 0
KWE2 271815Z 21007KT 32/10 A2987 RMK A01 T03180097  RH  026%=      5-min Rain = 0
KWE2 271816Z 22007KT 32/09 A2987 RMK A01 T03170092  RH  025%=      5-min Rain = 0
KWE2 271817Z 22005KT 32/09 A2987 RMK A01 T03170091  RH  025%=      5-min Rain = 0
KWE2 271818Z 22007KT 32/09 A2987 RMK A01 T03170092  RH  025%=      5-min Rain = 0
KWE2 271819Z 22008KT 32/09 A2987 RMK A01 T03190093  RH  025%=      5-min Rain = 0
KWE2 271820Z 24010KT 32/09 A2987 RMK A01 T03190094  RH  025%=      5-min Rain = 0
KWE2 271821Z 24014KT 32/10 A2987 RMK A01 T03230101  RH  026%=      5-min Rain = 0
KWE2 271822Z 23016KT 32/10 A2986 RMK A01 T03230103  RH  026%=      5-min Rain = 0
KWE2 271823Z 21014KT 32/11 A2987 RMK A01 T03240105  RH  026%=      5-min Rain = 0
KWE2 271824Z 21011G16KT 33/11 A2987 RMK A01 T03250108  RH  026%=      5-min Rain = 0
KWE2 271825Z 22010KT 32/11 A2987 RMK A01 T03240109  RH  027%=      5-min Rain = 0
KWE2 271826Z 21009KT 32/11 A2987 RMK A01 T03210111  RH  028%=      5-min Rain = 0
KWE2 271827Z 22007KT 32/11 A2987 RMK A01 T03210111  RH  028%=      5-min Rain = 0
KWE2 271828Z 23006KT 32/11 A2986 RMK A01 T03200111  RH  028%=      5-min Rain = 0
KWE2 271829Z 22011G17KT 32/11 A2986 RMK A01 T03180109  RH  028%=      5-min Rain = 0
KWE2 271830Z 20014KT 32/11 A2986 RMK A01 T03200105  RH  027%=      5-min Rain = 0
KWE2 271831Z 20015KT 33/10 A2986 RMK A01 T03260102  RH  025%=      5-min Rain = 0
KWE2 271832Z 20016KT 33/10 A2986 RMK A01 T03260102  RH  025%=      5-min Rain = 0
KWE2 271833Z 20017KT 33/11 A2986 RMK A01 T03280105  RH  025%=      5-min Rain = 0
KWE2 271834Z 20016KT 33/11 A2986 RMK A01 T03280109  RH  026%=      5-min Rain = 0
KWE2 271835Z 20013KT 33/11 A2986 RMK A01 T03260107  RH  026%=      5-min Rain = 0
KWE2 271836Z 19010G15KT 32/11 A2986 RMK A01 T03230107  RH  026%=      5-min Rain = 0
KWE2 271837Z 19012KT 32/11 A2986 RMK A01 T03210108  RH  027%=      5-min Rain = 0
KWE2 271838Z 18014KT 32/10 A2986 RMK A01 T03230097  RH  025%=      5-min Rain = 0
KWE2 271839Z 17011KT 32/10 A2986 RMK A01 T03240102  RH  025%=      5-min Rain = 0
KWE2 271840Z 19015G20KT 33/10 A2986 RMK A01 T03250102  RH  025%=      5-min Rain = 0
KWE2 271841Z 20016KT 33/10 A2986 RMK A01 T03280100  RH  025%=      5-min Rain = 0
KWE2 271842Z 20015KT 33/10 A2986 RMK A01 T03280098  RH  024%=      5-min Rain = 0
KWE2 271843Z 19017KT 33/10 A2986 RMK A01 T03270101  RH  025%=      5-min Rain = 0
KWE2 271844Z 20014KT 33/10 A2986 RMK A01 T03320104  RH  025%=      5-min Rain = 0
KWE2 271845Z 20012KT 33/10 A2986 RMK A01 T03330102  RH  024%=      5-min Rain = 0
KWE2 271846Z 20007KT 33/10 A2986 RMK A01 T03260100  RH  025%=      5-min Rain = 0
KWE2 271847Z 21009KT 32/10 A2985 RMK A01 T03220099  RH  025%=      5-min Rain = 0
KWE2 271848Z 22010G15KT 32/09 A2985 RMK A01 T03220092  RH  024%=      5-min Rain = 0
KWE2 271849Z 24011KT 33/09 A2985 RMK A01 T03250085  RH  023%=      5-min Rain = 0
KWE2 271850Z 20018KT 33/10 A2985 RMK A01 T03310100  RH  024%=      5-min Rain = 0
KWE2 271851Z 19013KT 33/09 A2985 RMK A01 T03310093  RH  023%=      5-min Rain = 0
KWE2 271852Z 20014KT 33/11 A2985 RMK A01 T03270108  RH  026%=      5-min Rain = 0
KWE2 271853Z 20012KT 33/11 A2985 RMK A01 T03290106  RH  026%=      5-min Rain = 0
KWE2 271854Z 21012KT 33/10 A2985 RMK A01 T03280098  RH  024%=      5-min Rain = 0
KWE2 271855Z 21017KT 33/08 A2985 RMK A01 T03280084  RH  022%=      5-min Rain = 0
KWE2 271856Z 22014G19KT 33/08 A2985 RMK A01 T03290084  RH  022%=      5-min Rain = 0
KWE2 271857Z 22013KT 33/08 A2985 RMK A01 T03290081  RH  022%=      5-min Rain = 0
KWE2 271858Z 22013KT 33/08 A2985 RMK A01 T03280079  RH  022%=      5-min Rain = 0
KWE2 271859Z 23010KT 33/08 A2985 RMK A01 T03290083  RH  022%=      5-min Rain = 0
KWE2 271900Z 22009KT 33/09 A2985 RMK A01 T03280094  RH  024%=      5-min Rain = 0
KWE2 271901Z 22007G13KT 32/09 A2985 RMK A01 T03240091  RH  024%=      5-min Rain = 0
KWE2 271902Z 19012KT 32/10 A2984 RMK A01 T03240096  RH  025%=      5-min Rain = 0
KWE2 271903Z 18013KT 33/10 A2984 RMK A01 T03270102  RH  025%=      5-min Rain = 0
KWE2 271904Z 20016KT 33/09 A2984 RMK A01 T03310090  RH  023%=      5-min Rain = 0
KWE2 271905Z 22016KT 33/07 A2984 RMK A01 T03340074  RH  020%=      5-min Rain = 0
KWE2 271906Z 21013KT 33/08 A2984 RMK A01 T03320075  RH  020%=      5-min Rain = 0
KWE2 271907Z 20012KT 33/08 A2984 RMK A01 T03290079  RH  021%=      5-min Rain = 0
KWE2 271908Z 23019KT 33/08 A2984 RMK A01 T03310075  RH  021%=      5-min Rain = 0
KWE2 271909Z 22017KT 33/08 A2984 RMK A01 T03340079  RH  021%=      5-min Rain = 0
KWE2 271910Z 22017KT 34/09 A2984 RMK A01 T03370086  RH  021%=      5-min Rain = 0
KWE2 271911Z 21015KT 34/09 A2984 RMK A01 T03390088  RH  021%=      5-min Rain = 0
KWE2 271912Z 22017G22KT 34/10 A2984 RMK A01 T03370096  RH  023%=      5-min Rain = 0
KWE2 271913Z 24014KT 33/10 A2984 RMK A01 T03330102  RH  024%=      5-min Rain = 0
KWE2 271914Z 24014KT 33/10 A2984 RMK A01 T03310097  RH  024%=      5-min Rain = 0
KWE2 271915Z 23013G18KT 33/09 A2984 RMK A01 T03290094  RH  024%=      5-min Rain = 0
KWE2 271916Z 22016KT 33/09 A2984 RMK A01 T03310092  RH  023%=      5-min Rain = 0
KWE2 271917Z 24013KT 33/09 A2984 RMK A01 T03340086  RH  022%=      5-min Rain = 0
KWE2 271918Z 24011KT 33/08 A2984 RMK A01 T03330080  RH  021%=      5-min Rain = 0
KWE2 271919Z 22009KT 33/07 A2984 RMK A01 T03320074  RH  020%=      5-min Rain = 0
KWE2 271920Z 21011KT 33/07 A2983 RMK A01 T03330073  RH  020%=      5-min Rain = 0
KWE2 271921Z 19012KT 33/08 A2983 RMK A01 T03340083  RH  021%=      5-min Rain = 0
KWE2 271922Z 18014KT 34/09 A2983 RMK A01 T03350091  RH  022%=      5-min Rain = 0
KWE2 271923Z 17016KT 34/10 A2983 RMK A01 T03370095  RH  023%=      5-min Rain = 0
KWE2 271924Z 20019KT 34/10 A2983 RMK A01 T03410098  RH  023%=      5-min Rain = 0
KWE2 271925Z 20020KT 34/09 A2983 RMK A01 T03420092  RH  022%=      5-min Rain = 0
KWE2 271926Z 21019KT 34/09 A2983 RMK A01 T03380092  RH  022%=      5-min Rain = 0
KWE2 271927Z 21017KT 34/09 A2983 RMK A01 T03350093  RH  023%=      5-min Rain = 0
KWE2 271928Z 21014KT 33/10 A2983 RMK A01 T03340097  RH  023%=      5-min Rain = 0
KWE2 271929Z 22013KT 34/10 A2983 RMK A01 T03350101  RH  024%=      5-min Rain = 0
KWE2 271930Z 19011KT 34/10 A2983 RMK A01 T03370104  RH  024%=      5-min Rain = 0
KWE2 271931Z 19008KT 34/11 A2983 RMK A01 T03410105  RH  024%=      5-min Rain = 0
KWE2 271932Z 20009KT 34/11 A2983 RMK A01 T03410106  RH  024%=      5-min Rain = 0
KWE2 271933Z 21008KT 34/10 A2983 RMK A01 T03420103  RH  023%=      5-min Rain = 0
KWE2 271934Z 21010G15KT 34/10 A2982 RMK A01 T03420103  RH  023%=      5-min Rain = 0
KWE2 271935Z 19015KT 34/11 A2982 RMK A01 T03410105  RH  024%=      5-min Rain = 0
KWE2 271936Z 18019KT 34/11 A2982 RMK A01 T03430109  RH  024%=      5-min Rain = 0
KWE2 271937Z 18017KT 34/11 A2982 RMK A01 T03420110  RH  024%=      5-min Rain = 0
KWE2 271938Z 18016KT 34/11 A2982 RMK A01 T03410114  RH  025%=      5-min Rain = 0
KWE2 271939Z 18015KT 34/12 A2982 RMK A01 T03410115  RH  025%=      5-min Rain = 0
KWE2 271940Z 18016KT 34/12 A2982 RMK A01 T03410115  RH  025%=      5-min Rain = 0
KWE2 271941Z 18014KT 34/11 A2982 RMK A01 T03390113  RH  025%=      5-min Rain = 0
KWE2 271942Z 18012KT 34/11 A2982 RMK A01 T03370112  RH  025%=      5-min Rain = 0
KWE2 271943Z 18012KT 34/12 A2982 RMK A01 T03370118  RH  026%=      5-min Rain = 0
KWE2 271944Z 20011KT 34/12 A2982 RMK A01 T03380121  RH  027%=      5-min Rain = 0
KWE2 271945Z 19013KT 34/12 A2982 RMK A01 T03360120  RH  027%=      5-min Rain = 0
KWE2 271946Z 18008KT 34/12 A2982 RMK A01 T03350115  RH  026%=      5-min Rain = 0
KWE2 271947Z 19006KT 33/11 A2982 RMK A01 T03330113  RH  026%=      5-min Rain = 0
KWE2 271948Z 20011KT 33/12 A2982 RMK A01 T03310118  RH  027%=      5-min Rain = 0
KWE2 271949Z 20010KT 33/12 A2982 RMK A01 T03320116  RH  027%=      5-min Rain = 0
KWE2 271950Z 19014G21KT 33/12 A2982 RMK A01 T03310116  RH  027%=      5-min Rain = 0
KWE2 271951Z 19016KT 34/12 A2982 RMK A01 T03350115  RH  026%=      5-min Rain = 0
KWE2 271952Z 18015KT 34/11 A2982 RMK A01 T03400114  RH  025%=      5-min Rain = 0
KWE2 271953Z 18017KT 34/12 A2982 RMK A01 T03410115  RH  025%=      5-min Rain = 0
KWE2 271954Z 18012KT 34/12 A2982 RMK A01 T03380118  RH  026%=      5-min Rain = 0
KWE2 271955Z 19012KT 34/12 A2982 RMK A01 T03350118  RH  027%=      5-min Rain = 0
KWE2 271956Z 20012KT 33/12 A2982 RMK A01 T03340120  RH  027%=      5-min Rain = 0
KWE2 271957Z 19013KT 34/12 A2982 RMK A01 T03350124  RH  028%=      5-min Rain = 0
KWE2 271958Z 20009KT 34/13 A2982 RMK A01 T03380126  RH  028%=      5-min Rain = 0
KWE2 271959Z 20012KT 34/13 A2982 RMK A01 T03390129  RH  028%=      5-min Rain = 0
KWE2 272000Z 19013KT 34/13 A2981 RMK A01 T03360128  RH  028%=      5-min Rain = 0
KWE2 272001Z 20010KT 34/13 A2981 RMK A01 T03350128  RH  029%=      5-min Rain = 0
KWE2 272002Z 18009G15KT 33/13 A2981 RMK A01 T03330130  RH  029%=      5-min Rain = 0
KWE2 272003Z 16015G20KT 33/14 A2981 RMK A01 T03330135  RH  030%=      5-min Rain = 0
KWE2 272004Z 17015KT 34/14 A2981 RMK A01 T03370137  RH  030%=      5-min Rain = 0
KWE2 272005Z 18014KT 34/14 A2981 RMK A01 T03390137  RH  030%=      5-min Rain = 0
KWE2 272006Z 19013KT 34/14 A2981 RMK A01 T03370135  RH  030%=      5-min Rain = 0
KWE2 272007Z 19013G18KT 33/14 A2981 RMK A01 T03340137  RH  030%=      5-min Rain = 0
KWE2 272008Z 21014KT 34/13 A2981 RMK A01 T03380131  RH  029%=      5-min Rain = 0
KWE2 272009Z 22013KT 34/11 A2981 RMK A01 T03380112  RH  025%=      5-min Rain = 0
KWE2 272010Z 22012KT 33/11 A2981 RMK A01 T03340112  RH  026%=      5-min Rain = 0
KWE2 272011Z 22011KT 33/11 A2981 RMK A01 T03340113  RH  026%=      5-min Rain = 0
KWE2 272012Z 22010KT 33/12 A2981 RMK A01 T03330118  RH  027%=      5-min Rain = 0
KWE2 272013Z 22011KT 33/12 A2981 RMK A01 T03330120  RH  027%=      5-min Rain = 0
KWE2 272014Z 21010KT 33/12 A2981 RMK A01 T03330122  RH  028%=      5-min Rain = 0
KWE2 272015Z 20009KT 33/13 A2981 RMK A01 T03330127  RH  029%=      5-min Rain = 0
KWE2 272016Z 17012KT 34/13 A2981 RMK A01 T03350130  RH  029%=      5-min Rain = 0
KWE2 272017Z 16009KT 34/13 A2981 RMK A01 T03370130  RH  029%=      5-min Rain = 0
KWE2 272018Z 19014KT 34/13 A298 RMK A01 T03350130  RH  029%=      5-min Rain = 0
KWE2 272019Z 17014KT 33/13 A298 RMK A01 T03330133  RH  030%=      5-min Rain = 0
KWE2 272020Z 16014G20KT 34/13 A298 RMK A01 T03370134  RH  029%=      5-min Rain = 0
KWE2 272021Z 18017KT 34/13 A298 RMK A01 T03400132  RH  028%=      5-min Rain = 0
KWE2 272022Z 17016KT 34/13 A298 RMK A01 T03410128  RH  028%=      5-min Rain = 0
KWE2 272023Z 17017KT 34/13 A298 RMK A01 T03380125  RH  028%=      5-min Rain = 0
KWE2 272024Z 17019KT 34/13 A298 RMK A01 T03380130  RH  028%=      5-min Rain = 0
KWE2 272025Z 17018KT 34/13 A298 RMK A01 T03410127  RH  027%=      5-min Rain = 0
KWE2 272026Z 17018G23KT 34/13 A298 RMK A01 T03400127  RH  028%=      5-min Rain = 0
KWE2 272027Z 16016KT 34/12 A298 RMK A01 T03360124  RH  028%=      5-min Rain = 0
KWE2 272028Z 16019KT 34/13 A2979 RMK A01 T03370125  RH  028%=      5-min Rain = 0
KWE2 272029Z 16018KT 34/12 A2979 RMK A01 T03390119  RH  026%=      5-min Rain = 0
KWE2 272030Z 17020KT 34/12 A2979 RMK A01 T03400121  RH  026%=      5-min Rain = 0
KWE2 272031Z 16020KT 34/13 A2979 RMK A01 T03430127  RH  027%=      5-min Rain = 0
KWE2 272032Z 16020KT 34/13 A2979 RMK A01 T03430128  RH  027%=      5-min Rain = 0
KWE2 272033Z 16014G20KT 34/13 A2979 RMK A01 T03390128  RH  028%=      5-min Rain = 0
KWE2 272034Z 16013KT 34/13 A2979 RMK A01 T03370129  RH  028%=      5-min Rain = 0
KWE2 272035Z 18022KT 34/13 A2979 RMK A01 T03390126  RH  028%=      5-min Rain = 0
KWE2 272036Z 18022KT 34/12 A2979 RMK A01 T03430120  RH  026%=      5-min Rain = 0
KWE2 272037Z 18018KT 34/12 A2979 RMK A01 T03430118  RH  026%=      5-min Rain = 0
KWE2 272038Z 19016KT 34/12 A2979 RMK A01 T03430118  RH  025%=      5-min Rain = 0
KWE2 272039Z 18016KT 34/12 A2979 RMK A01 T03390118  RH  026%=      5-min Rain = 0
KWE2 272040Z 18015KT 34/12 A2979 RMK A01 T03380115  RH  026%=      5-min Rain = 0
KWE2 272041Z 16022KT 34/11 A2979 RMK A01 T03400114  RH  025%=      5-min Rain = 0
KWE2 272042Z 17019KT 34/11 A2979 RMK A01 T03440112  RH  024%=      5-min Rain = 0
KWE2 272043Z 19017G24KT 35/11 A2979 RMK A01 T03470114  RH  024%=      5-min Rain = 0
KWE2 272044Z 18014KT 35/11 A2979 RMK A01 T03460105  RH  023%=      5-min Rain = 0
KWE2 272045Z 19012KT 34/11 A2979 RMK A01 T03420106  RH  024%=      5-min Rain = 0
KWE2 272046Z 18012KT 34/11 A2979 RMK A01 T03420106  RH  024%=      5-min Rain = 0
KWE2 272047Z 18014G21KT 34/11 A2979 RMK A01 T03410110  RH  024%=      5-min Rain = 0
KWE2 272048Z 18019G24KT 34/12 A2979 RMK A01 T03410119  RH  026%=      5-min Rain = 0
KWE2 272049Z 18022KT 34/11 A2979 RMK A01 T03430111  RH  024%=      5-min Rain = 0
KWE2 272050Z 18021G26KT 34/10 A2979 RMK A01 T03440102  RH  023%=      5-min Rain = 0
KWE2 272051Z 18019G25KT 35/10 A2979 RMK A01 T03460095  RH  022%=      5-min Rain = 0
KWE2 272052Z 20014G20KT 35/10 A2979 RMK A01 T03450095  RH  022%=      5-min Rain = 0
KWE2 272053Z 20009KT 34/10 A2978 RMK A01 T03400097  RH  023%=      5-min Rain = 0
KWE2 272054Z 19015G22KT 34/10 A2978 RMK A01 T03380103  RH  024%=      5-min Rain = 0
KWE2 272055Z 19019KT 34/11 A2979 RMK A01 T03410105  RH  024%=      5-min Rain = 0
KWE2 272056Z 20015KT 34/11 A2978 RMK A01 T03420105  RH  024%=      5-min Rain = 0
KWE2 272057Z 20013KT 34/10 A2978 RMK A01 T03410103  RH  023%=      5-min Rain = 0
KWE2 272058Z 19011KT 34/11 A2978 RMK A01 T03390106  RH  024%=      5-min Rain = 0
KWE2 272059Z 18013G18KT 34/11 A2978 RMK A01 T03380109  RH  025%=      5-min Rain = 0
KWE2 272100Z 17016KT 34/12 A2978 RMK A01 T03420116  RH  025%=      5-min Rain = 0
KWE2 272101Z 17019KT 34/12 A2978 RMK A01 T03430124  RH  027%=      5-min Rain = 0
KWE2 272102Z 16020KT 34/12 A2978 RMK A01 T03420119  RH  026%=      5-min Rain = 0
KWE2 272103Z 16021KT 34/12 A2978 RMK A01 T03420115  RH  025%=      5-min Rain = 0
KWE2 272104Z 18018KT 35/11 A2978 RMK A01 T03450112  RH  024%=      5-min Rain = 0
KWE2 272105Z 18016KT 34/13 A2978 RMK A01 T03430125  RH  027%=      5-min Rain = 0
KWE2 272106Z 16017G22KT 34/13 A2978 RMK A01 T03410131  RH  028%=      5-min Rain = 0
KWE2 272107Z 16015KT 34/13 A2978 RMK A01 T03420129  RH  028%=      5-min Rain = 0
KWE2 272108Z 17015KT 34/13 A2978 RMK A01 T03400128  RH  028%=      5-min Rain = 0
KWE2 272109Z 17016KT 34/13 A2978 RMK A01 T03390127  RH  028%=      5-min Rain = 0
KWE2 272110Z 17014KT 34/13 A2978 RMK A01 T03380127  RH  028%=      5-min Rain = 0
KWE2 272111Z 18020KT 34/12 A2978 RMK A01 T03400120  RH  026%=      5-min Rain = 0
KWE2 272112Z 17019G24KT 35/11 A2978 RMK A01 T03450114  RH  025%=      5-min Rain = 0
KWE2 272113Z 17020KT 35/11 A2978 RMK A01 T03450113  RH  024%=      5-min Rain = 0
KWE2 272114Z 17019KT 34/12 A2978 RMK A01 T03440118  RH  026%=      5-min Rain = 0
KWE2 272115Z 18020KT 34/12 A2978 RMK A01 T03410119  RH  026%=      5-min Rain = 0
KWE2 272116Z 18016G23KT 34/11 A2978 RMK A01 T03410110  RH  025%=      5-min Rain = 0
KWE2 272117Z 17014KT 34/11 A2978 RMK A01 T03400110  RH  025%=      5-min Rain = 0
KWE2 272118Z 17020G25KT 34/11 A2978 RMK A01 T03420113  RH  025%=      5-min Rain = 0
KWE2 272119Z 18022KT 34/10 A2977 RMK A01 T03440101  RH  023%=      5-min Rain = 0
KWE2 272120Z 18018KT 34/10 A2977 RMK A01 T03430104  RH  023%=      5-min Rain = 0
KWE2 272121Z 18017KT 34/11 A2977 RMK A01 T03440108  RH  024%=      5-min Rain = 0
KWE2 272122Z 18015KT 34/11 A2978 RMK A01 T03440109  RH  024%=      5-min Rain = 0
KWE2 272123Z 17015KT 34/11 A2977 RMK A01 T03430110  RH  024%=      5-min Rain = 0
KWE2 272124Z 15014KT 34/12 A2977 RMK A01 T03440116  RH  025%=      5-min Rain = 0
KWE2 272125Z 16015KT 34/12 A2977 RMK A01 T03440120  RH  026%=      5-min Rain = 0
KWE2 272126Z 18017KT 34/12 A2977 RMK A01 T03430118  RH  026%=      5-min Rain = 0
KWE2 272127Z 19021KT 34/10 A2977 RMK A01 T03430102  RH  023%=      5-min Rain = 0
KWE2 272128Z 20018KT 34/10 A2977 RMK A01 T03420103  RH  023%=      5-min Rain = 0
KWE2 272129Z 20017KT 34/10 A2977 RMK A01 T03400098  RH  023%=      5-min Rain = 0
KWE2 272130Z 18019KT 34/11 A2977 RMK A01 T03410105  RH  024%=      5-min Rain = 0
KWE2 272131Z 19016KT 34/11 A2977 RMK A01 T03420113  RH  025%=      5-min Rain = 0
KWE2 272132Z 17015KT 34/12 A2977 RMK A01 T03420115  RH  025%=      5-min Rain = 0
KWE2 272133Z 17015G20KT 34/12 A2977 RMK A01 T03390116  RH  026%=      5-min Rain = 0
KWE2 272134Z 17017KT 34/12 A2977 RMK A01 T03390119  RH  026%=      5-min Rain = 0
KWE2 272135Z 17019G24KT 34/12 A2977 RMK A01 T03390119  RH  026%=      5-min Rain = 0
KWE2 272136Z 17019KT 34/11 A2977 RMK A01 T03380114  RH  026%=      5-min Rain = 0
KWE2 272137Z 18017KT 34/11 A2977 RMK A01 T03400113  RH  025%=      5-min Rain = 0
KWE2 272138Z 17016KT 34/12 A2977 RMK A01 T03400115  RH  026%=      5-min Rain = 0
KWE2 272139Z 19019KT 34/11 A2977 RMK A01 T03390113  RH  025%=      5-min Rain = 0
KWE2 272140Z 17018KT 34/11 A2976 RMK A01 T03390112  RH  025%=      5-min Rain = 0
KWE2 272141Z 18016KT 34/11 A2976 RMK A01 T03410114  RH  025%=      5-min Rain = 0
KWE2 272142Z 16018KT 34/12 A2976 RMK A01 T03410116  RH  026%=      5-min Rain = 0
KWE2 272143Z 15020G25KT 34/11 A2976 RMK A01 T03430111  RH  024%=      5-min Rain = 0
KWE2 272144Z 16017KT 34/11 A2976 RMK A01 T03440110  RH  024%=      5-min Rain = 0
KWE2 272145Z 16020G26KT 34/11 A2976 RMK A01 T03430112  RH  025%=      5-min Rain = 0
KWE2 272146Z 18021KT 35/11 A2976 RMK A01 T03450111  RH  024%=      5-min Rain = 0
KWE2 272147Z 17020KT 34/11 A2976 RMK A01 T03430109  RH  024%=      5-min Rain = 0
KWE2 272148Z 18018G23KT 35/11 A2976 RMK A01 T03450109  RH  024%=      5-min Rain = 0
KWE2 272149Z 18019G24KT 35/11 A2976 RMK A01 T03510114  RH  024%=      5-min Rain = 0
KWE2 272150Z 17019KT 35/12 A2976 RMK A01 T03490118  RH  025%=      5-min Rain = 0
KWE2 272151Z 16018KT 34/12 A2976 RMK A01 T03430119  RH  026%=      5-min Rain = 0
KWE2 272152Z 17016KT 34/12 A2976 RMK A01 T03390117  RH  026%=      5-min Rain = 0
KWE2 272153Z 17015KT 34/12 A2976 RMK A01 T03370119  RH  027%=      5-min Rain = 0
KWE2 272154Z 17021G29KT 34/12 A2976 RMK A01 T03380118  RH  026%=      5-min Rain = 0
KWE2 272155Z 18022KT 34/11 A2976 RMK A01 T03400110  RH  025%=      5-min Rain = 0
KWE2 272156Z 18019KT 34/11 A2976 RMK A01 T03400110  RH  025%=      5-min Rain = 0
KWE2 272157Z 19020G25KT 34/11 A2976 RMK A01 T03400113  RH  025%=      5-min Rain = 0
KWE2 272158Z 19019KT 34/12 A2976 RMK A01 T03390116  RH  026%=      5-min Rain = 0
KWE2 272159Z 19018KT 34/12 A2976 RMK A01 T03400117  RH  026%=      5-min Rain = 0
KWE2 272200Z 18013G18KT 34/12 A2976 RMK A01 T03420116  RH  025%=      5-min Rain = 0
KWE2 272201Z 21015G22KT 34/12 A2976 RMK A01 T03420116  RH  025%=      5-min Rain = 0
KWE2 272202Z 20018KT 34/11 A2976 RMK A01 T03420111  RH  025%=      5-min Rain = 0
KWE2 272203Z 20016KT 34/11 A2976 RMK A01 T03400112  RH  025%=      5-min Rain = 0
KWE2 272204Z 18016KT 34/11 A2976 RMK A01 T03410112  RH  025%=      5-min Rain = 0
KWE2 272205Z 17019KT 34/11 A2976 RMK A01 T03430114  RH  025%=      5-min Rain = 0
KWE2 272206Z 16022KT 34/11 A2976 RMK A01 T03430114  RH  025%=      5-min Rain = 0
KWE2 272207Z 17018KT 34/11 A2976 RMK A01 T03390113  RH  025%=      5-min Rain = 0
KWE2 272208Z 18017G24KT 34/11 A2976 RMK A01 T03370114  RH  026%=      5-min Rain = 0
KWE2 272209Z 18019KT 34/12 A2976 RMK A01 T03410115  RH  025%=      5-min Rain = 0
KWE2 272210Z 18015KT 34/11 A2976 RMK A01 T03400114  RH  025%=      5-min Rain = 0
KWE2 272211Z 19020G25KT 34/12 A2976 RMK A01 T03390115  RH  025%=      5-min Rain = 0
KWE2 272212Z 18020KT 34/12 A2975 RMK A01 T03400116  RH  026%=      5-min Rain = 0
KWE2 272213Z 16020KT 34/12 A2975 RMK A01 T03400116  RH  026%=      5-min Rain = 0
KWE2 272214Z 16019KT 34/12 A2975 RMK A01 T03400116  RH  026%=      5-min Rain = 0
KWE2 272215Z 17019KT 34/12 A2975 RMK A01 T03420117  RH  026%=      5-min Rain = 0
KWE2 272216Z 18015KT 34/12 A2976 RMK A01 T03420117  RH  026%=      5-min Rain = 0
KWE2 272217Z 18018G23KT 34/12 A2975 RMK A01 T03420115  RH  025%=      5-min Rain = 0
KWE2 272218Z 18019KT 34/11 A2975 RMK A01 T03440109  RH  024%=      5-min Rain = 0
KWE2 272219Z 17018KT 34/11 A2975 RMK A01 T03420111  RH  025%=      5-min Rain = 0
KWE2 272220Z 18019KT 34/11 A2975 RMK A01 T03430113  RH  025%=      5-min Rain = 0
KWE2 272221Z 18018KT 34/11 A2975 RMK A01 T03410114  RH  025%=      5-min Rain = 0
KWE2 272222Z 17018G23KT 34/11 A2975 RMK A01 T03420113  RH  025%=      5-min Rain = 0
KWE2 272223Z 17017KT 34/11 A2975 RMK A01 T03400112  RH  025%=      5-min Rain = 0
KWE2 272224Z 17017KT 34/11 A2975 RMK A01 T03380112  RH  025%=      5-min Rain = 0
KWE2 272225Z 17020KT 34/11 A2975 RMK A01 T03390109  RH  025%=      5-min Rain = 0
KWE2 272226Z 18018G23KT 34/11 A2975 RMK A01 T03390110  RH  025%=      5-min Rain = 0
KWE2 272227Z 18017KT 34/11 A2975 RMK A01 T03400109  RH  025%=      5-min Rain = 0
KWE2 272228Z 17016KT 34/11 A2975 RMK A01 T03400111  RH  025%=      5-min Rain = 0
KWE2 272229Z 17021G26KT 34/11 A2975 RMK A01 T03420110  RH  024%=      5-min Rain = 0
KWE2 272230Z 17019KT 34/11 A2975 RMK A01 T03440107  RH  024%=      5-min Rain = 0
KWE2 272231Z 17017KT 34/11 A2975 RMK A01 T03410110  RH  025%=      5-min Rain = 0
KWE2 272232Z 17017KT 34/11 A2975 RMK A01 T03380114  RH  025%=      5-min Rain = 0
KWE2 272233Z 17021KT 34/11 A2975 RMK A01 T03380114  RH  026%=      5-min Rain = 0
KWE2 272234Z 17018KT 34/11 A2975 RMK A01 T03380112  RH  025%=      5-min Rain = 0
KWE2 272235Z 18019KT 34/11 A2975 RMK A01 T03380112  RH  025%=      5-min Rain = 0
KWE2 272236Z 17017KT 34/11 A2975 RMK A01 T03390111  RH  025%=      5-min Rain = 0
KWE2 272237Z 17019KT 34/11 A2974 RMK A01 T03370106  RH  024%=      5-min Rain = 0
KWE2 272238Z 17015KT 34/10 A2974 RMK A01 T03370102  RH  024%=      5-min Rain = 0
KWE2 272239Z 17019G24KT 34/10 A2974 RMK A01 T03360104  RH  024%=      5-min Rain = 0
KWE2 272240Z 17023KT 34/10 A2974 RMK A01 T03390102  RH  024%=      5-min Rain = 0
KWE2 272241Z 18021KT 34/10 A2974 RMK A01 T03390100  RH  023%=      5-min Rain = 0
KWE2 272242Z 18020KT 34/10 A2974 RMK A01 T03410099  RH  023%=      5-min Rain = 0
KWE2 272243Z 18020KT 34/10 A2974 RMK A01 T03420102  RH  023%=      5-min Rain = 0
KWE2 272244Z 17015G20KT 34/10 A2974 RMK A01 T03410104  RH  024%=      5-min Rain = 0
KWE2 272245Z 17018KT 34/11 A2974 RMK A01 T03410109  RH  024%=      5-min Rain = 0
KWE2 272246Z 17019KT 34/11 A2974 RMK A01 T03420111  RH  024%=      5-min Rain = 0
KWE2 272247Z 18017KT 34/11 A2974 RMK A01 T03410112  RH  025%=      5-min Rain = 0
KWE2 272248Z 17018KT 34/11 A2974 RMK A01 T03400105  RH  024%=      5-min Rain = 0
KWE2 272249Z 17019KT 34/11 A2974 RMK A01 T03390107  RH  024%=      5-min Rain = 0
KWE2 272250Z 18018KT 34/11 A2974 RMK A01 T03390109  RH  025%=      5-min Rain = 0
KWE2 272251Z 18019KT 34/11 A2974 RMK A01 T03370108  RH  025%=      5-min Rain = 0
KWE2 272252Z 18019KT 34/11 A2974 RMK A01 T03390109  RH  025%=      5-min Rain = 0
KWE2 272253Z 17016KT 34/11 A2974 RMK A01 T03400109  RH  025%=      5-min Rain = 0
KWE2 272254Z 16015G20KT 34/11 A2974 RMK A01 T03390109  RH  025%=      5-min Rain = 0
KWE2 272255Z 17018KT 34/11 A2973 RMK A01 T03390108  RH  024%=      5-min Rain = 0
KWE2 272256Z 17023G28KT 34/11 A2973 RMK A01 T03400106  RH  024%=      5-min Rain = 0
KWE2 272257Z 18019KT 34/11 A2973 RMK A01 T03400106  RH  024%=      5-min Rain = 0
KWE2 272258Z 18019KT 34/11 A2973 RMK A01 T03400108  RH  024%=      5-min Rain = 0
KWE2 272259Z 17017KT 34/11 A2973 RMK A01 T03410108  RH  024%=      5-min Rain = 0
KWE2 272300Z 19018KT 34/11 A2973 RMK A01 T03420109  RH  024%=      5-min Rain = 0
KWE2 272301Z 19017KT 34/11 A2973 RMK A01 T03440110  RH  024%=      5-min Rain = 0
KWE2 272302Z 18016G22KT 35/11 A2973 RMK A01 T03450111  RH  024%=      5-min Rain = 0
KWE2 272303Z 17018KT 35/11 A2973 RMK A01 T03450110  RH  024%=      5-min Rain = 0
KWE2 272304Z 18019KT 34/11 A2973 RMK A01 T03440107  RH  024%=      5-min Rain = 0
KWE2 272305Z 19017KT 34/11 A2973 RMK A01 T03430107  RH  024%=      5-min Rain = 0
KWE2 272306Z 18017KT 34/11 A2973 RMK A01 T03430107  RH  024%=      5-min Rain = 0
KWE2 272307Z 17020KT 34/11 A2973 RMK A01 T03420107  RH  024%=      5-min Rain = 0
KWE2 272308Z 17019KT 34/11 A2973 RMK A01 T03390106  RH  024%=      5-min Rain = 0
KWE2 272309Z 17018KT 34/11 A2973 RMK A01 T03370108  RH  025%=      5-min Rain = 0
KWE2 272310Z 16018KT 34/11 A2973 RMK A01 T03360108  RH  025%=      5-min Rain = 0
KWE2 272311Z 15021KT 34/11 A2973 RMK A01 T03380107  RH  024%=      5-min Rain = 0
KWE2 272312Z 17021KT 34/11 A2973 RMK A01 T03390107  RH  024%=      5-min Rain = 0
KWE2 272313Z 18019KT 34/11 A2973 RMK A01 T03390106  RH  024%=      5-min Rain = 0
KWE2 272314Z 18017KT 34/11 A2973 RMK A01 T03390107  RH  024%=      5-min Rain = 0
KWE2 272315Z 18014KT 34/11 A2973 RMK A01 T03390105  RH  024%=      5-min Rain = 0
KWE2 272316Z 18018KT 34/11 A2973 RMK A01 T03390109  RH  025%=      5-min Rain = 0
KWE2 272317Z 18013G21KT 34/11 A2973 RMK A01 T03390110  RH  025%=      5-min Rain = 0
KWE2 272318Z 18013KT 34/11 A2973 RMK A01 T03360111  RH  025%=      5-min Rain = 0
KWE2 272319Z 17014KT 34/11 A2973 RMK A01 T03370111  RH  025%=      5-min Rain = 0
KWE2 272320Z 18015KT 34/11 A2973 RMK A01 T03380114  RH  026%=      5-min Rain = 0
KWE2 272321Z 17017G22KT 34/12 A2973 RMK A01 T03390115  RH  026%=      5-min Rain = 0
KWE2 272322Z 17018KT 34/12 A2973 RMK A01 T03400116  RH  026%=      5-min Rain = 0
KWE2 272323Z 18018KT 34/12 A2973 RMK A01 T03400117  RH  026%=      5-min Rain = 0
KWE2 272324Z 17019KT 34/12 A2973 RMK A01 T03390116  RH  026%=      5-min Rain = 0
KWE2 272325Z 17017KT 34/12 A2973 RMK A01 T03380116  RH  026%=      5-min Rain = 0
KWE2 272326Z 18016KT 34/12 A2973 RMK A01 T03370118  RH  026%=      5-min Rain = 0
KWE2 272327Z 17018KT 34/12 A2973 RMK A01 T03380118  RH  026%=      5-min Rain = 0
KWE2 272328Z 17018KT 34/12 A2973 RMK A01 T03370117  RH  026%=      5-min Rain = 0
KWE2 272329Z 18019KT 34/11 A2973 RMK A01 T03370111  RH  025%=      5-min Rain = 0
KWE2 272330Z 18017KT 34/11 A2973 RMK A01 T03380109  RH  025%=      5-min Rain = 0
KWE2 272331Z 18015KT 34/11 A2973 RMK A01 T03380112  RH  025%=      5-min Rain = 0
KWE2 272332Z 19017KT 34/11 A2973 RMK A01 T03390112  RH  025%=      5-min Rain = 0
KWE2 272333Z 18016KT 34/11 A2973 RMK A01 T03380114  RH  026%=      5-min Rain = 0
KWE2 272334Z 18015KT 34/11 A2973 RMK A01 T03380114  RH  026%=      5-min Rain = 0
KWE2 272335Z 18016G21KT 34/11 A2973 RMK A01 T03390111  RH  025%=      5-min Rain = 0
KWE2 272336Z 19018KT 34/11 A2973 RMK A01 T03400108  RH  024%=      5-min Rain = 0
KWE2 272337Z 18016KT 34/11 A2973 RMK A01 T03370109  RH  025%=      5-min Rain = 0
KWE2 272338Z 18017KT 34/11 A2973 RMK A01 T03360110  RH  025%=      5-min Rain = 0
KWE2 272339Z 17018KT 34/11 A2973 RMK A01 T03360113  RH  026%=      5-min Rain = 0
KWE2 272340Z 17019KT 34/11 A2973 RMK A01 T03360111  RH  025%=      5-min Rain = 0
KWE2 272341Z 17019KT 34/11 A2973 RMK A01 T03350113  RH  026%=      5-min Rain = 0
KWE2 272342Z 17019KT 34/11 A2973 RMK A01 T03350113  RH  026%=      5-min Rain = 0
KWE2 272343Z 17019KT 34/11 A2973 RMK A01 T03360113  RH  026%=      5-min Rain = 0
KWE2 272344Z 18017KT 34/11 A2973 RMK A01 T03360114  RH  026%=      5-min Rain = 0
KWE2 272345Z 18016KT 34/11 A2973 RMK A01 T03360109  RH  025%=      5-min Rain = 0
KWE2 272346Z 18019KT 34/11 A2973 RMK A01 T03360112  RH  025%=      5-min Rain = 0
KWE2 272347Z 17019KT 34/11 A2973 RMK A01 T03360110  RH  025%=      5-min Rain = 0
KWE2 272348Z 17018KT 34/11 A2973 RMK A01 T03360108  RH  025%=      5-min Rain = 0
KWE2 272349Z 17017KT 33/11 A2972 RMK A01 T03340109  RH  025%=      5-min Rain = 0
KWE2 272350Z 17018KT 33/11 A2973 RMK A01 T03330111  RH  026%=      5-min Rain = 0
KWE2 272351Z 17017KT 33/11 A2972 RMK A01 T03330114  RH  026%=      5-min Rain = 0
KWE2 272352Z 18018KT 33/12 A2972 RMK A01 T03330115  RH  027%=      5-min Rain = 0
KWE2 272353Z 18017KT 33/12 A2972 RMK A01 T03330118  RH  027%=      5-min Rain = 0
KWE2 272354Z 18019KT 34/12 A2972 RMK A01 T03350117  RH  027%=      5-min Rain = 0
KWE2 272355Z 17017KT 33/12 A2972 RMK A01 T03340116  RH  027%=      5-min Rain = 0
KWE2 272356Z 18017KT 33/12 A2972 RMK A01 T03340118  RH  027%=      5-min Rain = 0
KWE2 272357Z 18018G23KT 33/12 A2972 RMK A01 T03340117  RH  027%=      5-min Rain = 0
KWE2 272358Z 17019KT 33/11 A2972 RMK A01 T03330113  RH  026%=      5-min Rain = 0
KWE2 272359Z 17019KT 33/11 A2972 RMK A01 T03330114  RH  026%=      5-min Rain = 0
KWE2 280000Z 17018KT 33/12 A2972 RMK A01 T03310119  RH  027%=      5-min Rain = 0
KWE2 280001Z 16016KT 33/12 A2972 RMK A01 T03300121  RH  028%=      5-min Rain = 0
KWE2 280002Z 17016KT 33/12 A2972 RMK A01 T03300122  RH  028%=      5-min Rain = 0
KWE2 280003Z 18016KT 33/12 A2972 RMK A01 T03300124  RH  029%=      5-min Rain = 0
KWE2 280004Z 17015KT 33/12 A2972 RMK A01 T03300124  RH  029%=      5-min Rain = 0
KWE2 280005Z 17017KT 33/12 A2972 RMK A01 T03310124  RH  028%=      5-min Rain = 0
KWE2 280006Z 17017KT 33/12 A2972 RMK A01 T03310122  RH  028%=      5-min Rain = 0
KWE2 280007Z 17020KT 33/12 A2972 RMK A01 T03320120  RH  028%=      5-min Rain = 0
KWE2 280008Z 17021KT 33/12 A2972 RMK A01 T03300121  RH  028%=      5-min Rain = 0
KWE2 280009Z 17018KT 33/12 A2972 RMK A01 T03300124  RH  029%=      5-min Rain = 0
KWE2 280010Z 17020KT 33/12 A2972 RMK A01 T03290124  RH  029%=      5-min Rain = 0
KWE2 280011Z 18020KT 33/12 A2972 RMK A01 T03290124  RH  029%=      5-min Rain = 0
KWE2 280012Z 18020KT 33/12 A2972 RMK A01 T03280124  RH  029%=      5-min Rain = 0
KWE2 280013Z 17021KT 33/13 A2972 RMK A01 T03280126  RH  029%=      5-min Rain = 0
KWE2 280014Z 17019KT 33/13 A2972 RMK A01 T03270126  RH  029%=      5-min Rain = 0
KWE2 280015Z 17018KT 33/13 A2972 RMK A01 T03270125  RH  029%=      5-min Rain = 0
KWE2 280016Z 17017KT 33/13 A2972 RMK A01 T03270125  RH  029%=      5-min Rain = 0
KWE2 280017Z 17017KT 33/13 A2972 RMK A01 T03270127  RH  030%=      5-min Rain = 0
KWE2 280018Z 17017KT 33/13 A2972 RMK A01 T03270127  RH  030%=      5-min Rain = 0
KWE2 280019Z 18015KT 33/13 A2972 RMK A01 T03270128  RH  030%=      5-min Rain = 0
KWE2 280020Z 17015KT 33/13 A2972 RMK A01 T03270128  RH  030%=      5-min Rain = 0
KWE2 280021Z 17018KT 33/13 A2972 RMK A01 T03280127  RH  030%=      5-min Rain = 0
KWE2 280022Z 17019KT 33/13 A2972 RMK A01 T03270126  RH  029%=      5-min Rain = 0
KWE2 280023Z 17018KT 33/12 A2972 RMK A01 T03270124  RH  029%=      5-min Rain = 0
KWE2 280024Z 17019KT 33/13 A2972 RMK A01 T03260125  RH  029%=      5-min Rain = 0
KWE2 280025Z 17019G24KT 33/13 A2972 RMK A01 T03250125  RH  030%=      5-min Rain = 0
KWE2 280026Z 16019KT 33/13 A2972 RMK A01 T03250125  RH  030%=      5-min Rain = 0
KWE2 280027Z 17020KT 33/12 A2971 RMK A01 T03250123  RH  029%=      5-min Rain = 0
KWE2 280028Z 17019KT 32/12 A2972 RMK A01 T03240124  RH  030%=      5-min Rain = 0
KWE2 280029Z 17017KT 32/13 A2972 RMK A01 T03240125  RH  030%=      5-min Rain = 0
KWE2 280030Z 17017KT 32/13 A2972 RMK A01 T03240125  RH  030%=      5-min Rain = 0
KWE2 280031Z 17016KT 32/13 A2972 RMK A01 T03230125  RH  030%=      5-min Rain = 0
KWE2 280032Z 17017G22KT 32/13 A2972 RMK A01 T03230125  RH  030%=      5-min Rain = 0
KWE2 280033Z 17016KT 32/13 A2972 RMK A01 T03230127  RH  030%=      5-min Rain = 0
KWE2 280034Z 17018KT 32/13 A2972 RMK A01 T03230126  RH  030%=      5-min Rain = 0
KWE2 280035Z 18017KT 32/13 A2972 RMK A01 T03230126  RH  030%=      5-min Rain = 0
KWE2 280036Z 17015KT 32/13 A2972 RMK A01 T03230127  RH  030%=      5-min Rain = 0
KWE2 280037Z 17017KT 32/13 A2972 RMK A01 T03220127  RH  031%=      5-min Rain = 0
KWE2 280038Z 18017KT 32/13 A2972 RMK A01 T03220127  RH  030%=      5-min Rain = 0
KWE2 280039Z 18016KT 32/13 A2972 RMK A01 T03210126  RH  030%=      5-min Rain = 0
KWE2 280040Z 18017KT 32/12 A2972 RMK A01 T03210124  RH  030%=      5-min Rain = 0
KWE2 280041Z 18017KT 32/13 A2972 RMK A01 T03210125  RH  030%=      5-min Rain = 0
KWE2 280042Z 18017KT 32/13 A2972 RMK A01 T03200126  RH  031%=      5-min Rain = 0
KWE2 280043Z 18016KT 32/13 A2972 RMK A01 T03200126  RH  031%=      5-min Rain = 0
KWE2 280044Z 17015KT 32/13 A2972 RMK A01 T03200127  RH  031%=      5-min Rain = 0
KWE2 280045Z 17015KT 32/13 A2972 RMK A01 T03200130  RH  031%=      5-min Rain = 0
KWE2 280046Z 17018KT 32/13 A2971 RMK A01 T03190131  RH  032%=      5-min Rain = 0
KWE2 280047Z 17016KT 32/13 A2971 RMK A01 T03180130  RH  032%=      5-min Rain = 0
KWE2 280048Z 17016KT 32/13 A2971 RMK A01 T03180132  RH  032%=      5-min Rain = 0
KWE2 280049Z 17016KT 32/13 A2971 RMK A01 T03180132  RH  032%=      5-min Rain = 0
KWE2 280050Z 17016KT 32/13 A2971 RMK A01 T03170132  RH  032%=      5-min Rain = 0
KWE2 280051Z 17015KT 32/13 A2971 RMK A01 T03160132  RH  032%=      5-min Rain = 0
KWE2 280052Z 17015KT 32/13 A2971 RMK A01 T03160133  RH  033%=      5-min Rain = 0
KWE2 280053Z 17014KT 32/13 A2971 RMK A01 T03160134  RH  033%=      5-min Rain = 0
KWE2 280054Z 17016KT 32/14 A2971 RMK A01 T03150135  RH  034%=      5-min Rain = 0
KWE2 280055Z 17017KT 31/14 A2971 RMK A01 T03140136  RH  034%=      5-min Rain = 0
KWE2 280056Z 17015KT 31/14 A2972 RMK A01 T03140137  RH  034%=      5-min Rain = 0
KWE2 280057Z 16016KT 31/14 A2971 RMK A01 T03140138  RH  034%=      5-min Rain = 0
KWE2 280058Z 16016KT 31/14 A2972 RMK A01 T03130140  RH  035%=      5-min Rain = 0
KWE2 280059Z 16019KT 31/15 A2972 RMK A01 T03130149  RH  037%=      5-min Rain = 0
KWE2 280100Z 16019KT 31/16 A2971 RMK A01 T03110164  RH  041%=      5-min Rain = 0
KWE2 280101Z 15019KT 31/17 A2971 RMK A01 T03100169  RH  043%=      5-min Rain = 0
KWE2 280102Z 16020KT 31/18 A2972 RMK A01 T03080176  RH  045%=      5-min Rain = 0
KWE2 280103Z 15021KT 31/18 A2971 RMK A01 T03070178  RH  046%=      5-min Rain = 0
KWE2 280104Z 16021KT 31/18 A2971 RMK A01 T03060180  RH  047%=      5-min Rain = 0
KWE2 280105Z 16021KT 30/18 A2972 RMK A01 T03040181  RH  048%=      5-min Rain = 0
KWE2 280106Z 15024KT 30/18 A2971 RMK A01 T03030183  RH  048%=      5-min Rain = 0
KWE2 280107Z 15022KT 30/18 A2971 RMK A01 T03020183  RH  049%=      5-min Rain = 0
KWE2 280108Z 15023KT 30/18 A2971 RMK A01 T03010183  RH  049%=      5-min Rain = 0
KWE2 280109Z 15024KT 30/18 A2971 RMK A01 T03010184  RH  049%=      5-min Rain = 0
KWE2 280110Z 15021KT 30/18 A2971 RMK A01 T03000184  RH  050%=      5-min Rain = 0
KWE2 280111Z 15022KT 30/18 A2971 RMK A01 T03000184  RH  050%=      5-min Rain = 0
KWE2 280112Z 16022KT 30/18 A2971 RMK A01 T02990184  RH  050%=      5-min Rain = 0
KWE2 280113Z 16022KT 30/18 A2971 RMK A01 T02990184  RH  050%=      5-min Rain = 0
KWE2 280114Z 16021KT 30/18 A2971 RMK A01 T02980184  RH  050%=      5-min Rain = 0
KWE2 280115Z 15020KT 30/18 A2972 RMK A01 T02980184  RH  050%=      5-min Rain = 0
KWE2 280116Z 16020KT 30/18 A2971 RMK A01 T02970183  RH  050%=      5-min Rain = 0
KWE2 280117Z 16021KT 30/18 A2972 RMK A01 T02970183  RH  051%=      5-min Rain = 0
KWE2 280118Z 16022G27KT 30/18 A2972 RMK A01 T02960183  RH  051%=      5-min Rain = 0
KWE2 280119Z 16024KT 30/18 A2972 RMK A01 T02960182  RH  050%=      5-min Rain = 0
KWE2 280120Z 16021KT 30/18 A2972 RMK A01 T02950181  RH  050%=      5-min Rain = 0
KWE2 280121Z 16022KT 30/18 A2972 RMK A01 T02950181  RH  050%=      5-min Rain = 0
KWE2 280122Z 16021KT 29/18 A2972 RMK A01 T02940181  RH  050%=      5-min Rain = 0
KWE2 280123Z 16018KT 29/18 A2972 RMK A01 T02940181  RH  051%=      5-min Rain = 0
KWE2 280124Z 15019KT 29/18 A2972 RMK A01 T02940183  RH  051%=      5-min Rain = 0
KWE2 280125Z 15019KT 29/18 A2972 RMK A01 T02920184  RH  052%=      5-min Rain = 0
KWE2 280126Z 16018KT 29/19 A2972 RMK A01 T02910185  RH  053%=      5-min Rain = 0
KWE2 280127Z 15018G23KT 29/19 A2972 RMK A01 T02910185  RH  053%=      5-min Rain = 0
KWE2 280128Z 16021KT 29/18 A2972 RMK A01 T02900184  RH  053%=      5-min Rain = 0
KWE2 280129Z 16019G24KT 29/18 A2972 RMK A01 T02900184  RH  053%=      5-min Rain = 0
KWE2 280130Z 16020KT 29/18 A2972 RMK A01 T02890183  RH  053%=      5-min Rain = 0
KWE2 280131Z 16019G24KT 29/18 A2972 RMK A01 T02890183  RH  053%=      5-min Rain = 0
KWE2 280132Z 16023G28KT 29/18 A2972 RMK A01 T02890182  RH  052%=      5-min Rain = 0
KWE2 280133Z 16022KT 29/18 A2972 RMK A01 T02890181  RH  052%=      5-min Rain = 0
KWE2 280134Z 16020KT 29/18 A2972 RMK A01 T02890180  RH  052%=      5-min Rain = 0
KWE2 280135Z 16022KT 29/18 A2972 RMK A01 T02880180  RH  052%=      5-min Rain = 0
KWE2 280136Z 16020KT 29/18 A2972 RMK A01 T02880179  RH  052%=      5-min Rain = 0
KWE2 280137Z 16020KT 29/18 A2972 RMK A01 T02880179  RH  052%=      5-min Rain = 0
KWE2 280138Z 16020KT 29/18 A2972 RMK A01 T02870179  RH  052%=      5-min Rain = 0
KWE2 280139Z 17020G25KT 29/18 A2972 RMK A01 T02870179  RH  052%=      5-min Rain = 0
KWE2 280140Z 16019KT 29/18 A2972 RMK A01 T02870179  RH  052%=      5-min Rain = 0
KWE2 280141Z 16019KT 29/18 A2972 RMK A01 T02860178  RH  052%=      5-min Rain = 0
KWE2 280142Z 16021KT 29/18 A2972 RMK A01 T02850178  RH  052%=      5-min Rain = 0
KWE2 280143Z 16019KT 29/18 A2972 RMK A01 T02850178  RH  052%=      5-min Rain = 0
KWE2 280144Z 16020KT 29/18 A2972 RMK A01 T02850178  RH  053%=      5-min Rain = 0
KWE2 280145Z 16020KT 28/18 A2972 RMK A01 T02840178  RH  053%=      5-min Rain = 0
KWE2 280146Z 16021KT 28/18 A2972 RMK A01 T02840178  RH  053%=      5-min Rain = 0
KWE2 280147Z 16020KT 28/18 A2972 RMK A01 T02830179  RH  053%=      5-min Rain = 0
KWE2 280148Z 16019KT 28/18 A2972 RMK A01 T02830179  RH  053%=      5-min Rain = 0
KWE2 280149Z 16018KT 28/18 A2972 RMK A01 T02820179  RH  054%=      5-min Rain = 0
KWE2 280150Z 16021KT 28/18 A2972 RMK A01 T02810179  RH  054%=      5-min Rain = 0
KWE2 280151Z 16020KT 28/18 A2972 RMK A01 T02810179  RH  054%=      5-min Rain = 0
KWE2 280152Z 15017KT 28/18 A2972 RMK A01 T02810180  RH  054%=      5-min Rain = 0
KWE2 280153Z 16017KT 28/18 A2972 RMK A01 T02810180  RH  054%=      5-min Rain = 0
KWE2 280154Z 16017KT 28/18 A2973 RMK A01 T02800180  RH  054%=      5-min Rain = 0
KWE2 280155Z 16015KT 28/18 A2973 RMK A01 T02790180  RH  055%=      5-min Rain = 0
KWE2 280156Z 16017KT 28/18 A2973 RMK A01 T02780180  RH  055%=      5-min Rain = 0
KWE2 280157Z 16016KT 28/18 A2973 RMK A01 T02780180  RH  055%=      5-min Rain = 0
KWE2 280158Z 16017KT 28/18 A2973 RMK A01 T02770179  RH  055%=      5-min Rain = 0
KWE2 280159Z 16019KT 28/18 A2973 RMK A01 T02770179  RH  055%=      5-min Rain = 0
KWE2 280200Z 16018KT 28/18 A2973 RMK A01 T02770179  RH  055%=      5-min Rain = 0
KWE2 280201Z 16018KT 28/18 A2973 RMK A01 T02770179  RH  055%=      5-min Rain = 0
KWE2 280202Z 16017KT 28/18 A2973 RMK A01 T02760179  RH  055%=      5-min Rain = 0
KWE2 280203Z 16018KT 28/18 A2973 RMK A01 T02760179  RH  055%=      5-min Rain = 0
KWE2 280204Z 16017KT 28/18 A2973 RMK A01 T02750178  RH  055%=      5-min Rain = 0
KWE2 280205Z 16018KT 28/18 A2973 RMK A01 T02750178  RH  056%=      5-min Rain = 0
KWE2 280206Z 16017KT 28/18 A2973 RMK A01 T02750178  RH  056%=      5-min Rain = 0
KWE2 280207Z 16017KT 27/18 A2973 RMK A01 T02740178  RH  056%=      5-min Rain = 0
KWE2 280208Z 16018KT 27/18 A2973 RMK A01 T02740179  RH  056%=      5-min Rain = 0
KWE2 280209Z 16018KT 27/18 A2973 RMK A01 T02740178  RH  056%=      5-min Rain = 0
KWE2 280210Z 15019KT 27/18 A2973 RMK A01 T02740179  RH  056%=      5-min Rain = 0
KWE2 280211Z 16017KT 27/18 A2973 RMK A01 T02730179  RH  056%=      5-min Rain = 0
KWE2 280212Z 16018KT 27/18 A2973 RMK A01 T02730179  RH  056%=      5-min Rain = 0
KWE2 280213Z 16018KT 27/18 A2973 RMK A01 T02720178  RH  056%=      5-min Rain = 0
KWE2 280214Z 15017KT 27/18 A2973 RMK A01 T02720179  RH  057%=      5-min Rain = 0
KWE2 280215Z 16018KT 27/18 A2973 RMK A01 T02720179  RH  057%=      5-min Rain = 0
KWE2 280216Z 16018KT 27/18 A2973 RMK A01 T02710179  RH  057%=      5-min Rain = 0
KWE2 280217Z 16019KT 27/18 A2973 RMK A01 T02710179  RH  057%=      5-min Rain = 0
KWE2 280218Z 16017KT 27/18 A2973 RMK A01 T02710180  RH  057%=      5-min Rain = 0
KWE2 280219Z 16018KT 27/18 A2973 RMK A01 T02710180  RH  057%=      5-min Rain = 0
KWE2 280220Z 16017KT 27/18 A2973 RMK A01 T02710180  RH  057%=      5-min Rain = 0
KWE2 280221Z 16017KT 27/18 A2973 RMK A01 T02700180  RH  058%=      5-min Rain = 0
KWE2 280222Z 16016KT 27/18 A2973 RMK A01 T02700180  RH  058%=      5-min Rain = 0
KWE2 280223Z 16018KT 27/18 A2973 RMK A01 T02690180  RH  058%=      5-min Rain = 0
KWE2 280224Z 16017KT 27/18 A2973 RMK A01 T02690180  RH  058%=      5-min Rain = 0
KWE2 280225Z 16016KT 27/18 A2973 RMK A01 T02690181  RH  059%=      5-min Rain = 0
KWE2 280226Z 16017KT 27/18 A2973 RMK A01 T02680181  RH  059%=      5-min Rain = 0
KWE2 280227Z 16016KT 27/18 A2973 RMK A01 T02680181  RH  059%=      5-min Rain = 0
KWE2 280228Z 16016KT 27/18 A2973 RMK A01 T02680182  RH  059%=      5-min Rain = 0
KWE2 280229Z 16016KT 27/18 A2973 RMK A01 T02670182  RH  059%=      5-min Rain = 0
KWE2 280230Z 15017KT 27/18 A2973 RMK A01 T02670182  RH  060%=      5-min Rain = 0
KWE2 280231Z 16019KT 27/18 A2973 RMK A01 T02660182  RH  060%=      5-min Rain = 0
KWE2 280232Z 16018KT 27/18 A2973 RMK A01 T02660182  RH  060%=      5-min Rain = 0
KWE2 280233Z 15017KT 27/18 A2973 RMK A01 T02660182  RH  060%=      5-min Rain = 0
KWE2 280234Z 16019KT 27/18 A2973 RMK A01 T02660183  RH  060%=      5-min Rain = 0
KWE2 280235Z 15017KT 27/18 A2973 RMK A01 T02660183  RH  060%=      5-min Rain = 0
KWE2 280236Z 15016KT 27/18 A2973 RMK A01 T02650183  RH  060%=      5-min Rain = 0
KWE2 280237Z 15015KT 27/18 A2973 RMK A01 T02650183  RH  061%=      5-min Rain = 0
KWE2 280238Z 15015KT 26/18 A2973 RMK A01 T02640183  RH  061%=      5-min Rain = 0
KWE2 280239Z 15015KT 26/18 A2973 RMK A01 T02630183  RH  061%=      5-min Rain = 0
KWE2 280240Z 15013KT 26/18 A2973 RMK A01 T02630183  RH  062%=      5-min Rain = 0
KWE2 280241Z 15014KT 26/18 A2973 RMK A01 T02620183  RH  062%=      5-min Rain = 0
KWE2 280242Z 15014KT 26/18 A2973 RMK A01 T02610183  RH  062%=      5-min Rain = 0
KWE2 280243Z 15016KT 26/18 A2973 RMK A01 T02610184  RH  062%=      5-min Rain = 0
KWE2 280244Z 15016KT 26/18 A2973 RMK A01 T02610184  RH  062%=      5-min Rain = 0
KWE2 280245Z 15017KT 26/18 A2973 RMK A01 T02610184  RH  062%=      5-min Rain = 0
KWE2 280246Z 15017KT 26/18 A2973 RMK A01 T02610184  RH  062%=      5-min Rain = 0
KWE2 280247Z 15016KT 26/18 A2973 RMK A01 T02610184  RH  062%=      5-min Rain = 0
KWE2 280248Z 15016KT 26/18 A2973 RMK A01 T02610184  RH  062%=      5-min Rain = 0
KWE2 280249Z 16017KT 26/18 A2973 RMK A01 T02610184  RH  062%=      5-min Rain = 0
KWE2 280250Z 16017KT 26/19 A2973 RMK A01 T02620185  RH  063%=      5-min Rain = 0
KWE2 280251Z 15017KT 26/18 A2973 RMK A01 T02610184  RH  063%=      5-min Rain = 0
KWE2 280252Z 16017KT 26/19 A2973 RMK A01 T02610185  RH  063%=      5-min Rain = 0
KWE2 280253Z 16017KT 26/19 A2973 RMK A01 T02610185  RH  063%=      5-min Rain = 0
KWE2 280254Z 16016KT 26/19 A2973 RMK A01 T02610185  RH  063%=      5-min Rain = 0
KWE2 280255Z 15017KT 26/19 A2973 RMK A01 T02610185  RH  063%=      5-min Rain = 0
KWE2 280256Z 16016KT 26/19 A2973 RMK A01 T02600185  RH  063%=      5-min Rain = 0
KWE2 280257Z 16017KT 26/19 A2973 RMK A01 T02600185  RH  063%=      5-min Rain = 0
KWE2 280258Z 15017KT 26/19 A2973 RMK A01 T02600185  RH  063%=      5-min Rain = 0
KWE2 280259Z 15018KT 26/19 A2973 RMK A01 T02600185  RH  063%=      5-min Rain = 0
KWE2 280300Z 15018KT 26/19 A2973 RMK A01 T02600185  RH  064%=      5-min Rain = 0
KWE2 280301Z 15018KT 26/19 A2973 RMK A01 T02590185  RH  064%=      5-min Rain = 0
KWE2 280302Z 15015KT 26/19 A2973 RMK A01 T02590185  RH  064%=      5-min Rain = 0
KWE2 280303Z 15015KT 26/19 A2973 RMK A01 T02590185  RH  064%=      5-min Rain = 0
KWE2 280304Z 15016KT 26/19 A2973 RMK A01 T02580185  RH  064%=      5-min Rain = 0
KWE2 280305Z 15016KT 26/19 A2973 RMK A01 T02580185  RH  064%=      5-min Rain = 0
KWE2 280306Z 15016KT 26/19 A2973 RMK A01 T02580185  RH  064%=      5-min Rain = 0
KWE2 280307Z 15015KT 26/19 A2973 RMK A01 T02570185  RH  064%=      5-min Rain = 0
KWE2 280308Z 15015KT 26/19 A2973 RMK A01 T02570186  RH  065%=      5-min Rain = 0
KWE2 280309Z 15015KT 26/19 A2973 RMK A01 T02570186  RH  065%=      5-min Rain = 0
KWE2 280310Z 15014KT 26/19 A2973 RMK A01 T02560186  RH  065%=      5-min Rain = 0
KWE2 280311Z 15017KT 26/19 A2973 RMK A01 T02560186  RH  065%=      5-min Rain = 0
KWE2 280312Z 15016KT 26/19 A2973 RMK A01 T02560187  RH  066%=      5-min Rain = 0
KWE2 280313Z 15015KT 26/19 A2973 RMK A01 T02550187  RH  066%=      5-min Rain = 0
KWE2 280314Z 15016KT 26/19 A2973 RMK A01 T02550186  RH  066%=      5-min Rain = 0
KWE2 280315Z 15016KT 26/19 A2973 RMK A01 T02550187  RH  066%=      5-min Rain = 0
KWE2 280316Z 15017KT 25/19 A2973 RMK A01 T02540187  RH  066%=      5-min Rain = 0
KWE2 280317Z 15015KT 26/19 A2973 RMK A01 T02550187  RH  066%=      5-min Rain = 0
KWE2 280318Z 15015KT 26/19 A2973 RMK A01 T02550187  RH  066%=      5-min Rain = 0
KWE2 280319Z 15015KT 25/19 A2973 RMK A01 T02540187  RH  066%=      5-min Rain = 0
KWE2 280320Z 15017KT 25/19 A2973 RMK A01 T02540187  RH  066%=      5-min Rain = 0
KWE2 280321Z 15016KT 25/19 A2973 RMK A01 T02540187  RH  066%=      5-min Rain = 0
KWE2 280322Z 15015KT 25/19 A2973 RMK A01 T02540187  RH  066%=      5-min Rain = 0
KWE2 280323Z 15014KT 25/19 A2973 RMK A01 T02540187  RH  067%=      5-min Rain = 0
KWE2 280324Z 15016KT 25/19 A2973 RMK A01 T02540187  RH  067%=      5-min Rain = 0
KWE2 280325Z 15017KT 25/19 A2973 RMK A01 T02540188  RH  067%=      5-min Rain = 0
KWE2 280326Z 15017KT 25/19 A2973 RMK A01 T02540187  RH  067%=      5-min Rain = 0
KWE2 280327Z 15017KT 25/19 A2973 RMK A01 T02540187  RH  067%=      5-min Rain = 0
KWE2 280328Z 15015KT 25/19 A2973 RMK A01 T02540188  RH  067%=      5-min Rain = 0
KWE2 280329Z 15015KT 25/19 A2973 RMK A01 T02530188  RH  067%=      5-min Rain = 0
KWE2 280330Z 15015KT 25/19 A2973 RMK A01 T02530188  RH  067%=      5-min Rain = 0
KWE2 280331Z 15015KT 25/19 A2973 RMK A01 T02520188  RH  067%=      5-min Rain = 0
KWE2 280332Z 15016KT 25/19 A2973 RMK A01 T02520188  RH  067%=      5-min Rain = 0
KWE2 280333Z 15017KT 25/19 A2973 RMK A01 T02520188  RH  068%=      5-min Rain = 0
KWE2 280334Z 15018KT 25/19 A2973 RMK A01 T02520188  RH  068%=      5-min Rain = 0
KWE2 280335Z 15015KT 25/19 A2973 RMK A01 T02520188  RH  068%=      5-min Rain = 0
KWE2 280336Z 15016KT 25/19 A2973 RMK A01 T02520188  RH  068%=      5-min Rain = 0
KWE2 280337Z 15016KT 25/19 A2973 RMK A01 T02520188  RH  068%=      5-min Rain = 0
KWE2 280338Z 16018KT 25/19 A2973 RMK A01 T02520188  RH  068%=      5-min Rain = 0
KWE2 280339Z 15016KT 25/19 A2973 RMK A01 T02520188  RH  068%=      5-min Rain = 0
KWE2 280340Z 15017KT 25/19 A2973 RMK A01 T02520188  RH  068%=      5-min Rain = 0
KWE2 280341Z 15015KT 25/19 A2973 RMK A01 T02520189  RH  068%=      5-min Rain = 0
KWE2 280342Z 15015KT 25/19 A2973 RMK A01 T02520188  RH  068%=      5-min Rain = 0
KWE2 280343Z 15016KT 25/19 A2973 RMK A01 T02510188  RH  068%=      5-min Rain = 0
KWE2 280344Z 15016KT 25/19 A2973 RMK A01 T02510189  RH  068%=      5-min Rain = 0
KWE2 280345Z 15014KT 25/19 A2973 RMK A01 T02510188  RH  068%=      5-min Rain = 0
KWE2 280346Z 15017KT 25/19 A2973 RMK A01 T02500188  RH  068%=      5-min Rain = 0
KWE2 280347Z 15016KT 25/19 A2973 RMK A01 T02500189  RH  069%=      5-min Rain = 0
KWE2 280348Z 15016G21KT 25/19 A2973 RMK A01 T02500188  RH  069%=      5-min Rain = 0
KWE2 280349Z 15018KT 25/19 A2973 RMK A01 T02500189  RH  069%=      5-min Rain = 0
KWE2 280350Z 15017KT 25/19 A2973 RMK A01 T02500189  RH  069%=      5-min Rain = 0
KWE2 280351Z 16017KT 25/19 A2973 RMK A01 T02500189  RH  069%=      5-min Rain = 0
KWE2 280352Z 15017KT 25/19 A2973 RMK A01 T02500189  RH  069%=      5-min Rain = 0
KWE2 280353Z 15017KT 25/19 A2973 RMK A01 T02500189  RH  069%=      5-min Rain = 0
KWE2 280354Z 15016KT 25/19 A2974 RMK A01 T02490188  RH  069%=      5-min Rain = 0
KWE2 280355Z 15016KT 25/19 A2974 RMK A01 T02490189  RH  069%=      5-min Rain = 0
KWE2 280356Z 15016KT 25/19 A2974 RMK A01 T02480188  RH  069%=      5-min Rain = 0
KWE2 280357Z 15017KT 25/19 A2974 RMK A01 T02480189  RH  069%=      5-min Rain = 0
KWE2 280358Z 15017KT 25/19 A2974 RMK A01 T02480189  RH  070%=      5-min Rain = 0
KWE2 280359Z 15016KT 25/19 A2974 RMK A01 T02480189  RH  070%=      5-min Rain = 0
KWE2 280400Z 15017KT 25/19 A2974 RMK A01 T02480189  RH  070%=      5-min Rain = 0
KWE2 280401Z 15016KT 25/19 A2974 RMK A01 T02480189  RH  070%=      5-min Rain = 0
KWE2 280402Z 15018KT 25/19 A2974 RMK A01 T02480189  RH  070%=      5-min Rain = 0
KWE2 280403Z 15017KT 25/19 A2974 RMK A01 T02480189  RH  070%=      5-min Rain = 0
KWE2 280404Z 15018KT 25/19 A2974 RMK A01 T02480189  RH  070%=      5-min Rain = 0
KWE2 280405Z 16018KT 25/19 A2974 RMK A01 T02480189  RH  070%=      5-min Rain = 0
KWE2 280406Z 16017KT 25/19 A2974 RMK A01 T02480189  RH  069%=      5-min Rain = 0
KWE2 280407Z 16017KT 25/19 A2974 RMK A01 T02480188  RH  069%=      5-min Rain = 0
KWE2 280408Z 16018KT 25/19 A2974 RMK A01 T02480189  RH  069%=      5-min Rain = 0
KWE2 280409Z 16018KT 25/19 A2974 RMK A01 T02480189  RH  069%=      5-min Rain = 0
KWE2 280410Z 16018KT 25/19 A2974 RMK A01 T02480189  RH  069%=      5-min Rain = 0
KWE2 280411Z 16017KT 25/19 A2974 RMK A01 T02480189  RH  070%=      5-min Rain = 0
KWE2 280412Z 16016KT 25/19 A2974 RMK A01 T02480189  RH  069%=      5-min Rain = 0
KWE2 280413Z 16016KT 25/19 A2974 RMK A01 T02480189  RH  070%=      5-min Rain = 0
KWE2 280414Z 16017KT 25/19 A2974 RMK A01 T02480189  RH  070%=      5-min Rain = 0
KWE2 280415Z 16014KT 25/19 A2974 RMK A01 T02480189  RH  070%=      5-min Rain = 0
KWE2 280416Z 16016KT 25/19 A2974 RMK A01 T02470189  RH  070%=      5-min Rain = 0
KWE2 280417Z 16016KT 25/19 A2974 RMK A01 T02470189  RH  070%=      5-min Rain = 0
KWE2 280418Z 16016KT 25/19 A2974 RMK A01 T02470189  RH  070%=      5-min Rain = 0
KWE2 280419Z 16016KT 25/19 A2974 RMK A01 T02470189  RH  070%=      5-min Rain = 0
KWE2 280420Z 16016KT 25/19 A2974 RMK A01 T02460189  RH  070%=      5-min Rain = 0
KWE2 280421Z 16017KT 25/19 A2974 RMK A01 T02460189  RH  070%=      5-min Rain = 0
KWE2 280422Z 16017KT 25/19 A2974 RMK A01 T02460189  RH  070%=      5-min Rain = 0
KWE2 280423Z 16017KT 25/19 A2974 RMK A01 T02460189  RH  070%=      5-min Rain = 0
KWE2 280424Z 16018KT 25/19 A2974 RMK A01 T02460189  RH  070%=      5-min Rain = 0
KWE2 280425Z 16018KT 25/19 A2974 RMK A01 T02470188  RH  070%=      5-min Rain = 0
KWE2 280426Z 16018KT 25/19 A2974 RMK A01 T02470189  RH  070%=      5-min Rain = 0
KWE2 280427Z 16017KT 25/19 A2974 RMK A01 T02470188  RH  070%=      5-min Rain = 0
KWE2 280428Z 16018KT 25/19 A2974 RMK A01 T02470188  RH  070%=      5-min Rain = 0
KWE2 280429Z 17018KT 25/19 A2974 RMK A01 T02470188  RH  070%=      5-min Rain = 0
KWE2 280430Z 17018KT 25/19 A2974 RMK A01 T02470188  RH  070%=      5-min Rain = 0
KWE2 280431Z 17019G24KT 25/19 A2974 RMK A01 T02470188  RH  069%=      5-min Rain = 0
KWE2 280432Z 17019KT 25/19 A2974 RMK A01 T02480188  RH  069%=      5-min Rain = 0
KWE2 280433Z 16019KT 25/19 A2974 RMK A01 T02480187  RH  069%=      5-min Rain = 0
KWE2 280434Z 17020KT 25/19 A2974 RMK A01 T02480187  RH  069%=      5-min Rain = 0
KWE2 280435Z 17019KT 25/19 A2974 RMK A01 T02480187  RH  069%=      5-min Rain = 0
KWE2 280436Z 17017KT 25/19 A2974 RMK A01 T02480188  RH  069%=      5-min Rain = 0
KWE2 280437Z 17017KT 25/19 A2974 RMK A01 T02470188  RH  069%=      5-min Rain = 0
KWE2 280438Z 17018KT 25/19 A2974 RMK A01 T02470188  RH  070%=      5-min Rain = 0
KWE2 280439Z 17017KT 25/19 A2974 RMK A01 T02460188  RH  070%=      5-min Rain = 0
KWE2 280440Z 16016KT 25/19 A2974 RMK A01 T02460188  RH  070%=      5-min Rain = 0
KWE2 280441Z 17018KT 25/19 A2974 RMK A01 T02460188  RH  070%=      5-min Rain = 0
KWE2 280442Z 16018G23KT 25/19 A2974 RMK A01 T02460188  RH  070%=      5-min Rain = 0
KWE2 280443Z 16017KT 25/19 A2974 RMK A01 T02460188  RH  070%=      5-min Rain = 0
KWE2 280444Z 16016KT 25/19 A2974 RMK A01 T02450188  RH  070%=      5-min Rain = 0
KWE2 280445Z 16017KT 25/19 A2974 RMK A01 T02450188  RH  070%=      5-min Rain = 0
KWE2 280446Z 16017KT 25/19 A2974 RMK A01 T02450188  RH  071%=      5-min Rain = 0
KWE2 280447Z 16016KT 25/19 A2974 RMK A01 T02450188  RH  071%=      5-min Rain = 0
KWE2 280448Z 16016KT 24/19 A2974 RMK A01 T02440188  RH  071%=      5-min Rain = 0
KWE2 280449Z 16016KT 24/19 A2974 RMK A01 T02440188  RH  071%=      5-min Rain = 0
KWE2 280450Z 17016KT 24/19 A2974 RMK A01 T02440188  RH  071%=      5-min Rain = 0
KWE2 280451Z 17017KT 24/19 A2974 RMK A01 T02440188  RH  071%=      5-min Rain = 0
KWE2 280452Z 16018KT 24/19 A2974 RMK A01 T02430187  RH  071%=      5-min Rain = 0
KWE2 280453Z 17020KT 24/19 A2974 RMK A01 T02440187  RH  071%=      5-min Rain = 0
KWE2 280454Z 17018KT 24/19 A2974 RMK A01 T02440186  RH  070%=      5-min Rain = 0
KWE2 280455Z 17016KT 24/19 A2974 RMK A01 T02440187  RH  070%=      5-min Rain = 0
KWE2 280456Z 17019KT 24/19 A2974 RMK A01 T02440187  RH  070%=      5-min Rain = 0
KWE2 280457Z 17019KT 24/19 A2974 RMK A01 T02440186  RH  070%=      5-min Rain = 0
KWE2 280458Z 17017G22KT 24/19 A2974 RMK A01 T02440186  RH  070%=      5-min Rain = 0
KWE2 280459Z 17018KT 24/19 A2974 RMK A01 T02440186  RH  070%=      5-min Rain = 0

Page generated in 0.1312 seconds.